Observation data for Tahoka on 05/13/2018      Previous  Date  Next       Current Mesonet Observations  Soil Data  Daily Summary Page  Observations in Plain Language
KTAS 130500Z 18012G17KT 27/14 A2996 RMK A01 T02670135  RH  044%=      5-min Rain = 0
KTAS 130501Z 18012KT 27/14 A2996 RMK A01 T02670135  RH  044%=      5-min Rain = 0
KTAS 130502Z 18012KT 27/14 A2996 RMK A01 T02660135  RH  044%=      5-min Rain = 0
KTAS 130503Z 18013KT 27/14 A2996 RMK A01 T02650135  RH  045%=      5-min Rain = 0
KTAS 130504Z 18012KT 27/14 A2996 RMK A01 T02650135  RH  045%=      5-min Rain = 0
KTAS 130505Z 18011KT 27/14 A2996 RMK A01 T02650135  RH  045%=      5-min Rain = 0
KTAS 130506Z 18010KT 26/14 A2996 RMK A01 T02640135  RH  045%=      5-min Rain = 0
KTAS 130507Z 18012KT 26/14 A2996 RMK A01 T02630135  RH  045%=      5-min Rain = 0
KTAS 130508Z 18013KT 26/14 A2996 RMK A01 T02630135  RH  045%=      5-min Rain = 0
KTAS 130509Z 18012KT 26/14 A2996 RMK A01 T02630135  RH  045%=      5-min Rain = 0
KTAS 130510Z 18012KT 26/14 A2996 RMK A01 T02630135  RH  045%=      5-min Rain = 0
KTAS 130511Z 18010KT 26/14 A2996 RMK A01 T02630135  RH  045%=      5-min Rain = 0
KTAS 130512Z 18011KT 26/14 A2996 RMK A01 T02620135  RH  045%=      5-min Rain = 0
KTAS 130513Z 18012KT 26/14 A2996 RMK A01 T02610135  RH  046%=      5-min Rain = 0
KTAS 130514Z 18012KT 26/14 A2996 RMK A01 T02620135  RH  045%=      5-min Rain = 0
KTAS 130515Z 18009KT 26/14 A2996 RMK A01 T02620135  RH  045%=      5-min Rain = 0
KTAS 130516Z 18011KT 26/14 A2996 RMK A01 T02600135  RH  046%=      5-min Rain = 0
KTAS 130517Z 18010KT 26/13 A2996 RMK A01 T02600134  RH  046%=      5-min Rain = 0
KTAS 130518Z 18010KT 26/14 A2996 RMK A01 T02590135  RH  046%=      5-min Rain = 0
KTAS 130519Z 18010KT 26/14 A2996 RMK A01 T02590135  RH  046%=      5-min Rain = 0
KTAS 130520Z 18009KT 26/14 A2996 RMK A01 T02580135  RH  046%=      5-min Rain = 0
KTAS 130521Z 18010KT 26/14 A2995 RMK A01 T02580135  RH  047%=      5-min Rain = 0
KTAS 130522Z 18011KT 26/13 A2995 RMK A01 T02570134  RH  047%=      5-min Rain = 0
KTAS 130523Z 18010KT 26/14 A2995 RMK A01 T02580135  RH  046%=      5-min Rain = 0
KTAS 130524Z 18009KT 26/13 A2995 RMK A01 T02570134  RH  047%=      5-min Rain = 0
KTAS 130525Z 18010KT 26/13 A2995 RMK A01 T02560134  RH  047%=      5-min Rain = 0
KTAS 130526Z 18010KT 26/13 A2995 RMK A01 T02560134  RH  047%=      5-min Rain = 0
KTAS 130527Z 18009KT 26/13 A2996 RMK A01 T02560134  RH  047%=      5-min Rain = 0
KTAS 130528Z 18010KT 26/13 A2996 RMK A01 T02550134  RH  047%=      5-min Rain = 0
KTAS 130529Z 18010KT 26/13 A2996 RMK A01 T02550134  RH  047%=      5-min Rain = 0
KTAS 130530Z 18010KT 26/13 A2996 RMK A01 T02550134  RH  047%=      5-min Rain = 0
KTAS 130531Z 18010KT 26/13 A2996 RMK A01 T02550134  RH  047%=      5-min Rain = 0
KTAS 130532Z 18011KT 25/13 A2996 RMK A01 T02540134  RH  047%=      5-min Rain = 0
KTAS 130533Z 18010KT 26/13 A2996 RMK A01 T02550134  RH  047%=      5-min Rain = 0
KTAS 130534Z 18010KT 25/13 A2996 RMK A01 T02540134  RH  047%=      5-min Rain = 0
KTAS 130535Z 18010KT 25/13 A2996 RMK A01 T02540134  RH  047%=      5-min Rain = 0
KTAS 130536Z 18010KT 25/13 A2996 RMK A01 T02530134  RH  048%=      5-min Rain = 0
KTAS 130537Z 18010KT 25/13 A2996 RMK A01 T02530134  RH  048%=      5-min Rain = 0
KTAS 130538Z 18010KT 25/13 A2996 RMK A01 T02530134  RH  048%=      5-min Rain = 0
KTAS 130539Z 18009KT 25/13 A2996 RMK A01 T02520134  RH  048%=      5-min Rain = 0
KTAS 130540Z 18010KT 25/13 A2996 RMK A01 T02510134  RH  048%=      5-min Rain = 0
KTAS 130541Z 18009KT 25/13 A2996 RMK A01 T02500134  RH  048%=      5-min Rain = 0
KTAS 130542Z 18010KT 25/13 A2996 RMK A01 T02500134  RH  049%=      5-min Rain = 0
KTAS 130543Z 18010KT 25/13 A2996 RMK A01 T02500134  RH  049%=      5-min Rain = 0
KTAS 130544Z 18009KT 25/13 A2996 RMK A01 T02500134  RH  049%=      5-min Rain = 0
KTAS 130545Z 18009KT 25/13 A2996 RMK A01 T02500134  RH  049%=      5-min Rain = 0
KTAS 130546Z 18009KT 25/13 A2996 RMK A01 T02490134  RH  049%=      5-min Rain = 0
KTAS 130547Z 18010KT 25/13 A2996 RMK A01 T02490134  RH  049%=      5-min Rain = 0
KTAS 130548Z 18009KT 25/13 A2996 RMK A01 T02490134  RH  049%=      5-min Rain = 0
KTAS 130549Z 18010KT 25/13 A2996 RMK A01 T02490134  RH  049%=      5-min Rain = 0
KTAS 130550Z 18010KT 25/13 A2996 RMK A01 T02490134  RH  049%=      5-min Rain = 0
KTAS 130551Z 18009KT 25/13 A2996 RMK A01 T02490134  RH  049%=      5-min Rain = 0
KTAS 130552Z 18010KT 25/13 A2996 RMK A01 T02480134  RH  049%=      5-min Rain = 0
KTAS 130553Z 18010KT 25/13 A2996 RMK A01 T02480134  RH  049%=      5-min Rain = 0
KTAS 130554Z 18010KT 25/13 A2996 RMK A01 T02490134  RH  049%=      5-min Rain = 0
KTAS 130555Z 18010KT 25/13 A2996 RMK A01 T02490134  RH  049%=      5-min Rain = 0
KTAS 130556Z 18010KT 25/13 A2996 RMK A01 T02480134  RH  049%=      5-min Rain = 0
KTAS 130557Z 18010KT 25/13 A2996 RMK A01 T02480134  RH  049%=      5-min Rain = 0
KTAS 130558Z 18010KT 25/13 A2996 RMK A01 T02480134  RH  049%=      5-min Rain = 0
KTAS 130559Z 18009KT 25/13 A2996 RMK A01 T02480134  RH  049%=      5-min Rain = 0
KTAS 130600Z 18010KT 25/13 A2996 RMK A01 T02470134  RH  049%=      5-min Rain = 0
KTAS 130601Z 17010KT 25/13 A2996 RMK A01 T02470134  RH  049%=      5-min Rain = 0
KTAS 130602Z 18010KT 25/13 A2996 RMK A01 T02470134  RH  049%=      5-min Rain = 0
KTAS 130603Z 18011KT 25/13 A2996 RMK A01 T02470134  RH  049%=      5-min Rain = 0
KTAS 130604Z 18010KT 25/13 A2996 RMK A01 T02480134  RH  049%=      5-min Rain = 0
KTAS 130605Z 18010KT 25/13 A2996 RMK A01 T02480134  RH  049%=      5-min Rain = 0
KTAS 130606Z 18010KT 25/13 A2996 RMK A01 T02480134  RH  049%=      5-min Rain = 0
KTAS 130607Z 18010KT 25/13 A2996 RMK A01 T02480134  RH  049%=      5-min Rain = 0
KTAS 130608Z 18010KT 25/13 A2996 RMK A01 T02480134  RH  049%=      5-min Rain = 0
KTAS 130609Z 18010KT 25/13 A2996 RMK A01 T02470134  RH  049%=      5-min Rain = 0
KTAS 130610Z 18010KT 25/13 A2996 RMK A01 T02470134  RH  049%=      5-min Rain = 0
KTAS 130611Z 18009KT 25/13 A2996 RMK A01 T02470134  RH  050%=      5-min Rain = 0
KTAS 130612Z 18010KT 25/13 A2996 RMK A01 T02470134  RH  050%=      5-min Rain = 0
KTAS 130613Z 18009KT 25/13 A2996 RMK A01 T02470134  RH  050%=      5-min Rain = 0
KTAS 130614Z 18009KT 25/13 A2996 RMK A01 T02460134  RH  050%=      5-min Rain = 0
KTAS 130615Z 17010KT 25/13 A2996 RMK A01 T02460134  RH  050%=      5-min Rain = 0
KTAS 130616Z 17009KT 25/13 A2996 RMK A01 T02460134  RH  050%=      5-min Rain = 0
KTAS 130617Z 17008KT 25/13 A2996 RMK A01 T02450134  RH  050%=      5-min Rain = 0
KTAS 130618Z 17009KT 25/13 A2996 RMK A01 T02450134  RH  050%=      5-min Rain = 0
KTAS 130619Z 17010KT 25/13 A2996 RMK A01 T02450134  RH  050%=      5-min Rain = 0
KTAS 130620Z 17009KT 25/13 A2996 RMK A01 T02450134  RH  050%=      5-min Rain = 0
KTAS 130621Z 17009KT 25/13 A2996 RMK A01 T02450134  RH  050%=      5-min Rain = 0
KTAS 130622Z 17009KT 24/13 A2996 RMK A01 T02440134  RH  050%=      5-min Rain = 0
KTAS 130623Z 17009KT 24/13 A2996 RMK A01 T02440134  RH  050%=      5-min Rain = 0
KTAS 130624Z 17008KT 24/13 A2996 RMK A01 T02430134  RH  051%=      5-min Rain = 0
KTAS 130625Z 16009KT 24/13 A2995 RMK A01 T02430134  RH  051%=      5-min Rain = 0
KTAS 130626Z 16008KT 24/14 A2995 RMK A01 T02420135  RH  051%=      5-min Rain = 0
KTAS 130627Z 17009KT 24/14 A2995 RMK A01 T02420135  RH  051%=      5-min Rain = 0
KTAS 130628Z 16008KT 24/14 A2995 RMK A01 T02410135  RH  051%=      5-min Rain = 0
KTAS 130629Z 16009KT 24/14 A2995 RMK A01 T02410135  RH  051%=      5-min Rain = 0
KTAS 130630Z 16008KT 24/13 A2995 RMK A01 T02410134  RH  051%=      5-min Rain = 0
KTAS 130631Z 16009KT 24/13 A2995 RMK A01 T02400134  RH  051%=      5-min Rain = 0
KTAS 130632Z 16009KT 24/13 A2995 RMK A01 T02400134  RH  051%=      5-min Rain = 0
KTAS 130633Z 16009KT 24/13 A2995 RMK A01 T02410134  RH  051%=      5-min Rain = 0
KTAS 130634Z 16009KT 24/13 A2995 RMK A01 T02410134  RH  051%=      5-min Rain = 0
KTAS 130635Z 16008KT 24/13 A2995 RMK A01 T02410134  RH  051%=      5-min Rain = 0
KTAS 130636Z 16009KT 24/13 A2995 RMK A01 T02410134  RH  051%=      5-min Rain = 0
KTAS 130637Z 16009KT 24/13 A2995 RMK A01 T02400134  RH  051%=      5-min Rain = 0
KTAS 130638Z 17009KT 24/13 A2995 RMK A01 T02400134  RH  051%=      5-min Rain = 0
KTAS 130639Z 16009KT 24/13 A2995 RMK A01 T02400134  RH  051%=      5-min Rain = 0
KTAS 130640Z 16008KT 24/13 A2995 RMK A01 T02400134  RH  051%=      5-min Rain = 0
KTAS 130641Z 16008KT 24/13 A2995 RMK A01 T02400134  RH  051%=      5-min Rain = 0
KTAS 130642Z 16008KT 24/13 A2995 RMK A01 T02400134  RH  052%=      5-min Rain = 0
KTAS 130643Z 16009KT 24/13 A2995 RMK A01 T02390134  RH  052%=      5-min Rain = 0
KTAS 130644Z 16009KT 24/13 A2995 RMK A01 T02390134  RH  052%=      5-min Rain = 0
KTAS 130645Z 16009KT 24/13 A2995 RMK A01 T02390134  RH  052%=      5-min Rain = 0
KTAS 130646Z 16008KT 24/13 A2995 RMK A01 T02390134  RH  052%=      5-min Rain = 0
KTAS 130647Z 17009KT 24/13 A2995 RMK A01 T02380134  RH  052%=      5-min Rain = 0
KTAS 130648Z 17009KT 24/13 A2995 RMK A01 T02380134  RH  052%=      5-min Rain = 0
KTAS 130649Z 16009KT 24/13 A2995 RMK A01 T02380134  RH  052%=      5-min Rain = 0
KTAS 130650Z 16009KT 24/13 A2995 RMK A01 T02380134  RH  052%=      5-min Rain = 0
KTAS 130651Z 16009KT 24/13 A2995 RMK A01 T02390134  RH  052%=      5-min Rain = 0
KTAS 130652Z 17010KT 24/13 A2995 RMK A01 T02390134  RH  052%=      5-min Rain = 0
KTAS 130653Z 17011KT 24/14 A2995 RMK A01 T02390135  RH  052%=      5-min Rain = 0
KTAS 130654Z 17010KT 24/14 A2995 RMK A01 T02390135  RH  052%=      5-min Rain = 0
KTAS 130655Z 17009KT 24/14 A2995 RMK A01 T02390135  RH  052%=      5-min Rain = 0
KTAS 130656Z 17011KT 24/14 A2995 RMK A01 T02390135  RH  052%=      5-min Rain = 0
KTAS 130657Z 17009KT 24/14 A2995 RMK A01 T02400135  RH  052%=      5-min Rain = 0
KTAS 130658Z 17010KT 24/14 A2995 RMK A01 T02410136  RH  052%=      5-min Rain = 0
KTAS 130659Z 17010KT 24/14 A2995 RMK A01 T02410135  RH  052%=      5-min Rain = 0
KTAS 130700Z 17010KT 24/14 A2995 RMK A01 T02400136  RH  052%=      5-min Rain = 0
KTAS 130701Z 17010KT 24/14 A2995 RMK A01 T02400135  RH  052%=      5-min Rain = 0
KTAS 130702Z 17011KT 24/14 A2995 RMK A01 T02400136  RH  052%=      5-min Rain = 0
KTAS 130703Z 17010KT 24/14 A2995 RMK A01 T02400136  RH  052%=      5-min Rain = 0
KTAS 130704Z 17010KT 24/14 A2995 RMK A01 T02400136  RH  052%=      5-min Rain = 0
KTAS 130705Z 17011KT 24/14 A2995 RMK A01 T02400136  RH  052%=      5-min Rain = 0
KTAS 130706Z 17011KT 24/14 A2995 RMK A01 T02400136  RH  052%=      5-min Rain = 0
KTAS 130707Z 17010KT 24/14 A2995 RMK A01 T02400136  RH  052%=      5-min Rain = 0
KTAS 130708Z 17011KT 24/14 A2995 RMK A01 T02400136  RH  052%=      5-min Rain = 0
KTAS 130709Z 17011KT 24/14 A2995 RMK A01 T02400136  RH  052%=      5-min Rain = 0
KTAS 130710Z 17011KT 24/14 A2995 RMK A01 T02410136  RH  052%=      5-min Rain = 0
KTAS 130711Z 17011KT 24/14 A2995 RMK A01 T02410136  RH  052%=      5-min Rain = 0
KTAS 130712Z 17012KT 24/14 A2995 RMK A01 T02410136  RH  052%=      5-min Rain = 0
KTAS 130713Z 17012G17KT 24/14 A2995 RMK A01 T02410137  RH  052%=      5-min Rain = 0
KTAS 130714Z 17011KT 24/14 A2995 RMK A01 T02420137  RH  052%=      5-min Rain = 0
KTAS 130715Z 17011KT 24/14 A2995 RMK A01 T02410137  RH  052%=      5-min Rain = 0
KTAS 130716Z 17011KT 24/14 A2995 RMK A01 T02410137  RH  052%=      5-min Rain = 0
KTAS 130717Z 17012KT 24/14 A2995 RMK A01 T02410137  RH  052%=      5-min Rain = 0
KTAS 130718Z 18012KT 24/14 A2995 RMK A01 T02410137  RH  052%=      5-min Rain = 0
KTAS 130719Z 17012KT 24/14 A2994 RMK A01 T02400137  RH  052%=      5-min Rain = 0
KTAS 130720Z 17012KT 24/14 A2994 RMK A01 T02390137  RH  053%=      5-min Rain = 0
KTAS 130721Z 17012KT 24/14 A2994 RMK A01 T02390137  RH  053%=      5-min Rain = 0
KTAS 130722Z 18012KT 24/14 A2995 RMK A01 T02390137  RH  053%=      5-min Rain = 0
KTAS 130723Z 18011KT 24/14 A2995 RMK A01 T02390137  RH  053%=      5-min Rain = 0
KTAS 130724Z 18011KT 24/14 A2995 RMK A01 T02390137  RH  053%=      5-min Rain = 0
KTAS 130725Z 18012KT 24/14 A2995 RMK A01 T02390137  RH  053%=      5-min Rain = 0
KTAS 130726Z 18011KT 24/14 A2995 RMK A01 T02390137  RH  053%=      5-min Rain = 0
KTAS 130727Z 17012KT 24/14 A2994 RMK A01 T02390137  RH  053%=      5-min Rain = 0
KTAS 130728Z 18011KT 24/14 A2994 RMK A01 T02390137  RH  053%=      5-min Rain = 0
KTAS 130729Z 18011KT 24/14 A2994 RMK A01 T02390137  RH  053%=      5-min Rain = 0
KTAS 130730Z 18011KT 24/14 A2994 RMK A01 T02390137  RH  053%=      5-min Rain = 0
KTAS 130731Z 18011KT 24/14 A2994 RMK A01 T02380137  RH  053%=      5-min Rain = 0
KTAS 130732Z 18010KT 24/14 A2994 RMK A01 T02380136  RH  053%=      5-min Rain = 0
KTAS 130733Z 18011KT 24/14 A2995 RMK A01 T02380136  RH  053%=      5-min Rain = 0
KTAS 130734Z 18010KT 24/14 A2995 RMK A01 T02370136  RH  053%=      5-min Rain = 0
KTAS 130735Z 18010KT 24/14 A2995 RMK A01 T02360136  RH  053%=      5-min Rain = 0
KTAS 130736Z 18010KT 24/14 A2995 RMK A01 T02360136  RH  053%=      5-min Rain = 0
KTAS 130737Z 17010KT 24/14 A2995 RMK A01 T02350136  RH  054%=      5-min Rain = 0
KTAS 130738Z 18010KT 24/14 A2995 RMK A01 T02350136  RH  054%=      5-min Rain = 0
KTAS 130739Z 18011KT 24/14 A2995 RMK A01 T02350136  RH  054%=      5-min Rain = 0
KTAS 130740Z 17010KT 24/14 A2995 RMK A01 T02350136  RH  054%=      5-min Rain = 0
KTAS 130741Z 18009KT 24/14 A2995 RMK A01 T02350136  RH  054%=      5-min Rain = 0
KTAS 130742Z 18011KT 23/14 A2995 RMK A01 T02340136  RH  054%=      5-min Rain = 0
KTAS 130743Z 18011KT 24/14 A2995 RMK A01 T02350136  RH  054%=      5-min Rain = 0
KTAS 130744Z 18011KT 24/14 A2995 RMK A01 T02350136  RH  054%=      5-min Rain = 0
KTAS 130745Z 18010KT 24/14 A2995 RMK A01 T02350136  RH  054%=      5-min Rain = 0
KTAS 130746Z 18011KT 24/14 A2995 RMK A01 T02350136  RH  054%=      5-min Rain = 0
KTAS 130747Z 18011KT 24/14 A2995 RMK A01 T02350137  RH  054%=      5-min Rain = 0
KTAS 130748Z 18011KT 24/14 A2995 RMK A01 T02350137  RH  054%=      5-min Rain = 0
KTAS 130749Z 18011KT 24/14 A2995 RMK A01 T02350137  RH  054%=      5-min Rain = 0
KTAS 130750Z 18011KT 24/14 A2995 RMK A01 T02350137  RH  054%=      5-min Rain = 0
KTAS 130751Z 18011KT 24/14 A2995 RMK A01 T02350138  RH  054%=      5-min Rain = 0
KTAS 130752Z 18012KT 24/14 A2994 RMK A01 T02360138  RH  054%=      5-min Rain = 0
KTAS 130753Z 18011KT 24/14 A2994 RMK A01 T02360138  RH  054%=      5-min Rain = 0
KTAS 130754Z 18012KT 24/14 A2994 RMK A01 T02360138  RH  054%=      5-min Rain = 0
KTAS 130755Z 18014KT 24/14 A2994 RMK A01 T02360139  RH  054%=      5-min Rain = 0
KTAS 130756Z 18011KT 24/14 A2994 RMK A01 T02370139  RH  054%=      5-min Rain = 0
KTAS 130757Z 18012KT 24/14 A2994 RMK A01 T02370139  RH  054%=      5-min Rain = 0
KTAS 130758Z 18012KT 24/14 A2994 RMK A01 T02370139  RH  054%=      5-min Rain = 0
KTAS 130759Z 18010KT 24/14 A2994 RMK A01 T02360139  RH  054%=      5-min Rain = 0
KTAS 130800Z 18012KT 24/14 A2994 RMK A01 T02360139  RH  054%=      5-min Rain = 0
KTAS 130801Z 18011KT 24/14 A2994 RMK A01 T02360139  RH  055%=      5-min Rain = 0
KTAS 130802Z 19011KT 24/14 A2994 RMK A01 T02360139  RH  055%=      5-min Rain = 0
KTAS 130803Z 19011KT 24/14 A2994 RMK A01 T02350139  RH  055%=      5-min Rain = 0
KTAS 130804Z 18012KT 24/14 A2994 RMK A01 T02350139  RH  055%=      5-min Rain = 0
KTAS 130805Z 18011KT 24/14 A2994 RMK A01 T02350139  RH  055%=      5-min Rain = 0
KTAS 130806Z 18010KT 23/14 A2994 RMK A01 T02340139  RH  055%=      5-min Rain = 0
KTAS 130807Z 19012KT 23/14 A2994 RMK A01 T02340140  RH  055%=      5-min Rain = 0
KTAS 130808Z 18012KT 23/14 A2994 RMK A01 T02340140  RH  055%=      5-min Rain = 0
KTAS 130809Z 19012KT 24/14 A2994 RMK A01 T02350140  RH  055%=      5-min Rain = 0
KTAS 130810Z 18011KT 24/14 A2994 RMK A01 T02350140  RH  055%=      5-min Rain = 0
KTAS 130811Z 18012KT 23/14 A2994 RMK A01 T02340140  RH  055%=      5-min Rain = 0
KTAS 130812Z 18013KT 24/14 A2994 RMK A01 T02350141  RH  056%=      5-min Rain = 0
KTAS 130813Z 18012KT 24/14 A2994 RMK A01 T02350141  RH  055%=      5-min Rain = 0
KTAS 130814Z 18011KT 24/14 A2994 RMK A01 T02360141  RH  055%=      5-min Rain = 0
KTAS 130815Z 18012KT 24/14 A2994 RMK A01 T02350141  RH  056%=      5-min Rain = 0
KTAS 130816Z 18011KT 24/14 A2994 RMK A01 T02350141  RH  056%=      5-min Rain = 0
KTAS 130817Z 18012G17KT 24/14 A2994 RMK A01 T02350142  RH  056%=      5-min Rain = 0
KTAS 130818Z 18013KT 24/14 A2994 RMK A01 T02350142  RH  056%=      5-min Rain = 0
KTAS 130819Z 19011KT 24/14 A2994 RMK A01 T02360142  RH  056%=      5-min Rain = 0
KTAS 130820Z 18012KT 24/14 A2994 RMK A01 T02350142  RH  056%=      5-min Rain = 0
KTAS 130821Z 18011KT 24/14 A2994 RMK A01 T02350142  RH  056%=      5-min Rain = 0
KTAS 130822Z 18011KT 23/14 A2994 RMK A01 T02340142  RH  056%=      5-min Rain = 0
KTAS 130823Z 18009KT 23/14 A2994 RMK A01 T02340142  RH  056%=      5-min Rain = 0
KTAS 130824Z 18011KT 23/14 A2994 RMK A01 T02330142  RH  056%=      5-min Rain = 0
KTAS 130825Z 18012KT 23/14 A2994 RMK A01 T02330142  RH  057%=      5-min Rain = 0
KTAS 130826Z 18011KT 23/14 A2994 RMK A01 T02330142  RH  057%=      5-min Rain = 0
KTAS 130827Z 18010KT 23/14 A2994 RMK A01 T02330142  RH  057%=      5-min Rain = 0
KTAS 130828Z 18011KT 23/14 A2994 RMK A01 T02320142  RH  057%=      5-min Rain = 0
KTAS 130829Z 18011KT 23/14 A2994 RMK A01 T02320142  RH  057%=      5-min Rain = 0
KTAS 130830Z 18010KT 23/14 A2994 RMK A01 T02320142  RH  057%=      5-min Rain = 0
KTAS 130831Z 18010KT 23/14 A2995 RMK A01 T02310142  RH  057%=      5-min Rain = 0
KTAS 130832Z 18011KT 23/14 A2995 RMK A01 T02320142  RH  057%=      5-min Rain = 0
KTAS 130833Z 18011KT 23/14 A2995 RMK A01 T02320142  RH  057%=      5-min Rain = 0
KTAS 130834Z 18010KT 23/14 A2995 RMK A01 T02310142  RH  057%=      5-min Rain = 0
KTAS 130835Z 18010KT 23/14 A2995 RMK A01 T02310142  RH  057%=      5-min Rain = 0
KTAS 130836Z 19010KT 23/14 A2995 RMK A01 T02310142  RH  057%=      5-min Rain = 0
KTAS 130837Z 19011KT 23/14 A2995 RMK A01 T02300142  RH  057%=      5-min Rain = 0
KTAS 130838Z 19011KT 23/14 A2995 RMK A01 T02300142  RH  058%=      5-min Rain = 0
KTAS 130839Z 18012KT 23/14 A2995 RMK A01 T02300142  RH  058%=      5-min Rain = 0
KTAS 130840Z 18011KT 23/14 A2995 RMK A01 T02300142  RH  058%=      5-min Rain = 0
KTAS 130841Z 18011KT 23/14 A2995 RMK A01 T02300142  RH  058%=      5-min Rain = 0
KTAS 130842Z 19012KT 23/14 A2995 RMK A01 T02300143  RH  058%=      5-min Rain = 0
KTAS 130843Z 19011KT 23/14 A2995 RMK A01 T02300143  RH  058%=      5-min Rain = 0
KTAS 130844Z 19010KT 23/14 A2995 RMK A01 T02300143  RH  058%=      5-min Rain = 0
KTAS 130845Z 19010KT 23/14 A2995 RMK A01 T02290143  RH  058%=      5-min Rain = 0
KTAS 130846Z 19011KT 23/14 A2995 RMK A01 T02280143  RH  059%=      5-min Rain = 0
KTAS 130847Z 19011KT 23/14 A2995 RMK A01 T02280143  RH  059%=      5-min Rain = 0
KTAS 130848Z 19011KT 23/14 A2995 RMK A01 T02280143  RH  059%=      5-min Rain = 0
KTAS 130849Z 19011KT 23/14 A2995 RMK A01 T02280143  RH  059%=      5-min Rain = 0
KTAS 130850Z 19010KT 23/14 A2995 RMK A01 T02280143  RH  059%=      5-min Rain = 0
KTAS 130851Z 19012KT 23/14 A2995 RMK A01 T02280144  RH  059%=      5-min Rain = 0
KTAS 130852Z 19010KT 23/14 A2995 RMK A01 T02280144  RH  059%=      5-min Rain = 0
KTAS 130853Z 19011KT 23/14 A2995 RMK A01 T02280144  RH  059%=      5-min Rain = 0
KTAS 130854Z 19011KT 23/14 A2995 RMK A01 T02280144  RH  059%=      5-min Rain = 0
KTAS 130855Z 19011KT 23/15 A2995 RMK A01 T02280145  RH  059%=      5-min Rain = 0
KTAS 130856Z 19010KT 23/15 A2995 RMK A01 T02280145  RH  059%=      5-min Rain = 0
KTAS 130857Z 19011KT 23/15 A2995 RMK A01 T02280145  RH  060%=      5-min Rain = 0
KTAS 130858Z 19011KT 23/15 A2995 RMK A01 T02280145  RH  060%=      5-min Rain = 0
KTAS 130859Z 19010KT 23/15 A2995 RMK A01 T02280145  RH  060%=      5-min Rain = 0
KTAS 130900Z 19009KT 23/15 A2995 RMK A01 T02270145  RH  060%=      5-min Rain = 0
KTAS 130901Z 19009KT 23/15 A2995 RMK A01 T02260145  RH  060%=      5-min Rain = 0
KTAS 130902Z 19011KT 23/15 A2995 RMK A01 T02260146  RH  060%=      5-min Rain = 0
KTAS 130903Z 19011KT 23/15 A2995 RMK A01 T02260146  RH  060%=      5-min Rain = 0
KTAS 130904Z 19009KT 23/15 A2995 RMK A01 T02260146  RH  060%=      5-min Rain = 0
KTAS 130905Z 19009KT 23/15 A2995 RMK A01 T02260146  RH  060%=      5-min Rain = 0
KTAS 130906Z 19010KT 23/15 A2995 RMK A01 T02260146  RH  061%=      5-min Rain = 0
KTAS 130907Z 19012KT 23/15 A2995 RMK A01 T02260146  RH  061%=      5-min Rain = 0
KTAS 130908Z 19010KT 23/15 A2995 RMK A01 T02260146  RH  060%=      5-min Rain = 0
KTAS 130909Z 19009KT 23/15 A2995 RMK A01 T02260146  RH  061%=      5-min Rain = 0
KTAS 130910Z 19009KT 23/15 A2995 RMK A01 T02250146  RH  061%=      5-min Rain = 0
KTAS 130911Z 19010KT 22/15 A2995 RMK A01 T02240146  RH  061%=      5-min Rain = 0
KTAS 130912Z 19010KT 22/15 A2995 RMK A01 T02240146  RH  061%=      5-min Rain = 0
KTAS 130913Z 19010KT 22/15 A2995 RMK A01 T02240146  RH  061%=      5-min Rain = 0
KTAS 130914Z 19009KT 23/15 A2995 RMK A01 T02250146  RH  061%=      5-min Rain = 0
KTAS 130915Z 19011KT 23/15 A2995 RMK A01 T02250146  RH  061%=      5-min Rain = 0
KTAS 130916Z 19010KT 23/15 A2995 RMK A01 T02250147  RH  061%=      5-min Rain = 0
KTAS 130917Z 19011KT 23/15 A2995 RMK A01 T02250147  RH  061%=      5-min Rain = 0
KTAS 130918Z 19010KT 23/15 A2995 RMK A01 T02260147  RH  061%=      5-min Rain = 0
KTAS 130919Z 19011KT 23/15 A2995 RMK A01 T02260147  RH  061%=      5-min Rain = 0
KTAS 130920Z 19009KT 23/15 A2995 RMK A01 T02250147  RH  061%=      5-min Rain = 0
KTAS 130921Z 19009KT 23/15 A2995 RMK A01 T02250147  RH  061%=      5-min Rain = 0
KTAS 130922Z 19011KT 22/15 A2995 RMK A01 T02240147  RH  062%=      5-min Rain = 0
KTAS 130923Z 19010KT 22/15 A2995 RMK A01 T02240147  RH  061%=      5-min Rain = 0
KTAS 130924Z 18012KT 22/15 A2995 RMK A01 T02240147  RH  062%=      5-min Rain = 0
KTAS 130925Z 19011KT 22/15 A2995 RMK A01 T02240147  RH  062%=      5-min Rain = 0
KTAS 130926Z 18012KT 23/15 A2995 RMK A01 T02250147  RH  061%=      5-min Rain = 0
KTAS 130927Z 19011KT 23/15 A2995 RMK A01 T02250147  RH  061%=      5-min Rain = 0
KTAS 130928Z 18013KT 23/15 A2995 RMK A01 T02250147  RH  061%=      5-min Rain = 0
KTAS 130929Z 19010KT 23/15 A2995 RMK A01 T02260147  RH  061%=      5-min Rain = 0
KTAS 130930Z 18011KT 23/15 A2995 RMK A01 T02250147  RH  061%=      5-min Rain = 0
KTAS 130931Z 18011KT 23/15 A2995 RMK A01 T02250147  RH  061%=      5-min Rain = 0
KTAS 130932Z 18011KT 22/15 A2995 RMK A01 T02240147  RH  062%=      5-min Rain = 0
KTAS 130933Z 18010KT 22/15 A2995 RMK A01 T02240147  RH  062%=      5-min Rain = 0
KTAS 130934Z 18011KT 22/15 A2995 RMK A01 T02230147  RH  062%=      5-min Rain = 0
KTAS 130935Z 18011KT 22/15 A2995 RMK A01 T02230147  RH  062%=      5-min Rain = 0
KTAS 130936Z 18011KT 22/15 A2995 RMK A01 T02230147  RH  062%=      5-min Rain = 0
KTAS 130937Z 18010KT 22/15 A2995 RMK A01 T02240147  RH  062%=      5-min Rain = 0
KTAS 130938Z 18012KT 22/15 A2995 RMK A01 T02230147  RH  062%=      5-min Rain = 0
KTAS 130939Z 18010KT 22/15 A2995 RMK A01 T02240147  RH  062%=      5-min Rain = 0
KTAS 130940Z 18012KT 22/15 A2995 RMK A01 T02240147  RH  062%=      5-min Rain = 0
KTAS 130941Z 18010G15KT 23/15 A2995 RMK A01 T02250147  RH  062%=      5-min Rain = 0
KTAS 130942Z 18010KT 23/15 A2995 RMK A01 T02250147  RH  062%=      5-min Rain = 0
KTAS 130943Z 18010KT 22/15 A2995 RMK A01 T02240147  RH  062%=      5-min Rain = 0
KTAS 130944Z 18010KT 22/15 A2996 RMK A01 T02230147  RH  062%=      5-min Rain = 0
KTAS 130945Z 18009KT 22/15 A2996 RMK A01 T02230147  RH  062%=      5-min Rain = 0
KTAS 130946Z 18011KT 22/15 A2996 RMK A01 T02220147  RH  062%=      5-min Rain = 0
KTAS 130947Z 18010KT 22/15 A2996 RMK A01 T02220147  RH  062%=      5-min Rain = 0
KTAS 130948Z 18010KT 22/15 A2996 RMK A01 T02220147  RH  062%=      5-min Rain = 0
KTAS 130949Z 18011KT 22/15 A2996 RMK A01 T02220147  RH  063%=      5-min Rain = 0
KTAS 130950Z 18011KT 22/15 A2996 RMK A01 T02220147  RH  063%=      5-min Rain = 0
KTAS 130951Z 18010KT 22/15 A2995 RMK A01 T02220147  RH  062%=      5-min Rain = 0
KTAS 130952Z 18011KT 22/15 A2995 RMK A01 T02220147  RH  063%=      5-min Rain = 0
KTAS 130953Z 18010KT 22/15 A2995 RMK A01 T02220147  RH  063%=      5-min Rain = 0
KTAS 130954Z 18011KT 22/15 A2995 RMK A01 T02210147  RH  063%=      5-min Rain = 0
KTAS 130955Z 18010KT 22/15 A2996 RMK A01 T02210147  RH  063%=      5-min Rain = 0
KTAS 130956Z 18010KT 22/15 A2996 RMK A01 T02210147  RH  063%=      5-min Rain = 0
KTAS 130957Z 18010KT 22/15 A2996 RMK A01 T02210147  RH  063%=      5-min Rain = 0
KTAS 130958Z 18009KT 22/15 A2996 RMK A01 T02200147  RH  063%=      5-min Rain = 0
KTAS 130959Z 18010KT 22/15 A2996 RMK A01 T02200147  RH  063%=      5-min Rain = 0
KTAS 131000Z 18010KT 22/15 A2996 RMK A01 T02200147  RH  063%=      5-min Rain = 0
KTAS 131001Z 18010KT 22/15 A2996 RMK A01 T02200147  RH  063%=      5-min Rain = 0
KTAS 131002Z 18010KT 22/15 A2996 RMK A01 T02200147  RH  063%=      5-min Rain = 0
KTAS 131003Z 18010KT 22/15 A2996 RMK A01 T02200147  RH  063%=      5-min Rain = 0
KTAS 131004Z 18009KT 22/15 A2996 RMK A01 T02190147  RH  063%=      5-min Rain = 0
KTAS 131005Z 18010KT 22/15 A2996 RMK A01 T02190146  RH  063%=      5-min Rain = 0
KTAS 131006Z 18009KT 22/15 A2996 RMK A01 T02190146  RH  064%=      5-min Rain = 0
KTAS 131007Z 18010KT 22/15 A2996 RMK A01 T02180146  RH  064%=      5-min Rain = 0
KTAS 131008Z 18010KT 22/15 A2996 RMK A01 T02180146  RH  064%=      5-min Rain = 0
KTAS 131009Z 18009KT 22/15 A2996 RMK A01 T02180146  RH  064%=      5-min Rain = 0
KTAS 131010Z 18010KT 22/15 A2996 RMK A01 T02180146  RH  064%=      5-min Rain = 0
KTAS 131011Z 18010KT 22/15 A2996 RMK A01 T02170146  RH  064%=      5-min Rain = 0
KTAS 131012Z 18009KT 22/15 A2996 RMK A01 T02170146  RH  064%=      5-min Rain = 0
KTAS 131013Z 18009KT 22/15 A2996 RMK A01 T02170146  RH  064%=      5-min Rain = 0
KTAS 131014Z 18010KT 22/15 A2996 RMK A01 T02170146  RH  064%=      5-min Rain = 0
KTAS 131015Z 18010KT 22/15 A2996 RMK A01 T02170146  RH  064%=      5-min Rain = 0
KTAS 131016Z 18010KT 22/15 A2996 RMK A01 T02160146  RH  064%=      5-min Rain = 0
KTAS 131017Z 18009KT 22/15 A2996 RMK A01 T02160146  RH  064%=      5-min Rain = 0
KTAS 131018Z 18008KT 22/15 A2996 RMK A01 T02160146  RH  064%=      5-min Rain = 0
KTAS 131019Z 18009KT 22/15 A2995 RMK A01 T02150145  RH  064%=      5-min Rain = 0
KTAS 131020Z 18009KT 22/15 A2995 RMK A01 T02150145  RH  064%=      5-min Rain = 0
KTAS 131021Z 18009KT 22/15 A2995 RMK A01 T02150145  RH  064%=      5-min Rain = 0
KTAS 131022Z 18008KT 22/15 A2995 RMK A01 T02150145  RH  064%=      5-min Rain = 0
KTAS 131023Z 18009KT 21/15 A2995 RMK A01 T02140145  RH  065%=      5-min Rain = 0
KTAS 131024Z 18008KT 21/15 A2995 RMK A01 T02140145  RH  065%=      5-min Rain = 0
KTAS 131025Z 18008KT 21/15 A2995 RMK A01 T02130145  RH  065%=      5-min Rain = 0
KTAS 131026Z 18008KT 21/15 A2996 RMK A01 T02130145  RH  065%=      5-min Rain = 0
KTAS 131027Z 18009KT 21/15 A2996 RMK A01 T02130145  RH  065%=      5-min Rain = 0
KTAS 131028Z 18009KT 21/15 A2996 RMK A01 T02130145  RH  065%=      5-min Rain = 0
KTAS 131029Z 18008KT 21/15 A2996 RMK A01 T02140145  RH  065%=      5-min Rain = 0
KTAS 131030Z 18009KT 21/15 A2996 RMK A01 T02130145  RH  065%=      5-min Rain = 0
KTAS 131031Z 18009KT 21/15 A2995 RMK A01 T02130145  RH  065%=      5-min Rain = 0
KTAS 131032Z 18009KT 21/15 A2995 RMK A01 T02130145  RH  065%=      5-min Rain = 0
KTAS 131033Z 18008KT 21/15 A2995 RMK A01 T02130145  RH  065%=      5-min Rain = 0
KTAS 131034Z 18007KT 21/15 A2996 RMK A01 T02120145  RH  065%=      5-min Rain = 0
KTAS 131035Z 18007KT 21/14 A2996 RMK A01 T02110144  RH  065%=      5-min Rain = 0
KTAS 131036Z 18009KT 21/14 A2996 RMK A01 T02110144  RH  066%=      5-min Rain = 0
KTAS 131037Z 18008KT 21/15 A2996 RMK A01 T02110145  RH  066%=      5-min Rain = 0
KTAS 131038Z 18008KT 21/14 A2996 RMK A01 T02110144  RH  066%=      5-min Rain = 0
KTAS 131039Z 18008KT 21/15 A2996 RMK A01 T02110145  RH  066%=      5-min Rain = 0
KTAS 131040Z 18009KT 21/15 A2996 RMK A01 T02110145  RH  066%=      5-min Rain = 0
KTAS 131041Z 18009KT 21/15 A2996 RMK A01 T02120145  RH  065%=      5-min Rain = 0
KTAS 131042Z 18009KT 21/15 A2996 RMK A01 T02120145  RH  065%=      5-min Rain = 0
KTAS 131043Z 18008KT 21/15 A2996 RMK A01 T02120145  RH  065%=      5-min Rain = 0
KTAS 131044Z 19009KT 21/14 A2996 RMK A01 T02110144  RH  066%=      5-min Rain = 0
KTAS 131045Z 18008KT 21/14 A2996 RMK A01 T02110144  RH  066%=      5-min Rain = 0
KTAS 131046Z 18008KT 21/14 A2996 RMK A01 T02110144  RH  066%=      5-min Rain = 0
KTAS 131047Z 18009KT 21/14 A2996 RMK A01 T02100144  RH  066%=      5-min Rain = 0
KTAS 131048Z 18009KT 21/14 A2996 RMK A01 T02100144  RH  066%=      5-min Rain = 0
KTAS 131049Z 18008KT 21/14 A2996 RMK A01 T02100144  RH  066%=      5-min Rain = 0
KTAS 131050Z 19008KT 21/14 A2996 RMK A01 T02100144  RH  066%=      5-min Rain = 0
KTAS 131051Z 18008KT 21/14 A2996 RMK A01 T02100144  RH  066%=      5-min Rain = 0
KTAS 131052Z 18007KT 21/14 A2996 RMK A01 T02100144  RH  066%=      5-min Rain = 0
KTAS 131053Z 18008KT 21/14 A2996 RMK A01 T02090144  RH  066%=      5-min Rain = 0
KTAS 131054Z 18009KT 21/14 A2996 RMK A01 T02100144  RH  066%=      5-min Rain = 0
KTAS 131055Z 18009KT 21/14 A2996 RMK A01 T02090144  RH  066%=      5-min Rain = 0
KTAS 131056Z 18008KT 21/14 A2996 RMK A01 T02090144  RH  066%=      5-min Rain = 0
KTAS 131057Z 18009KT 21/14 A2996 RMK A01 T02090144  RH  066%=      5-min Rain = 0
KTAS 131058Z 18008KT 21/14 A2996 RMK A01 T02080144  RH  066%=      5-min Rain = 0
KTAS 131059Z 18008KT 21/14 A2996 RMK A01 T02080144  RH  066%=      5-min Rain = 0
KTAS 131100Z 18008KT 21/14 A2996 RMK A01 T02080143  RH  067%=      5-min Rain = 0
KTAS 131101Z 18008KT 21/14 A2996 RMK A01 T02070143  RH  067%=      5-min Rain = 0
KTAS 131102Z 18009KT 21/14 A2996 RMK A01 T02070144  RH  067%=      5-min Rain = 0
KTAS 131103Z 18008KT 21/14 A2996 RMK A01 T02070143  RH  067%=      5-min Rain = 0
KTAS 131104Z 18008KT 21/14 A2996 RMK A01 T02070143  RH  067%=      5-min Rain = 0
KTAS 131105Z 18008KT 21/14 A2996 RMK A01 T02070143  RH  067%=      5-min Rain = 0
KTAS 131106Z 18009KT 21/14 A2996 RMK A01 T02060143  RH  067%=      5-min Rain = 0
KTAS 131107Z 18008KT 21/14 A2996 RMK A01 T02060143  RH  067%=      5-min Rain = 0
KTAS 131108Z 18007KT 21/14 A2996 RMK A01 T02060143  RH  067%=      5-min Rain = 0
KTAS 131109Z 18008KT 21/14 A2996 RMK A01 T02060143  RH  067%=      5-min Rain = 0
KTAS 131110Z 18008KT 21/14 A2996 RMK A01 T02050143  RH  067%=      5-min Rain = 0
KTAS 131111Z 18008KT 21/14 A2996 RMK A01 T02050143  RH  067%=      5-min Rain = 0
KTAS 131112Z 18007KT 20/14 A2996 RMK A01 T02040143  RH  068%=      5-min Rain = 0
KTAS 131113Z 18007KT 20/14 A2996 RMK A01 T02040142  RH  068%=      5-min Rain = 0
KTAS 131114Z 18007KT 20/14 A2996 RMK A01 T02030142  RH  068%=      5-min Rain = 0
KTAS 131115Z 18006KT 20/14 A2996 RMK A01 T02030142  RH  068%=      5-min Rain = 0
KTAS 131116Z 18007KT 20/14 A2996 RMK A01 T02020142  RH  068%=      5-min Rain = 0
KTAS 131117Z 18007KT 20/14 A2996 RMK A01 T02020142  RH  068%=      5-min Rain = 0
KTAS 131118Z 18006KT 20/14 A2996 RMK A01 T02010142  RH  068%=      5-min Rain = 0
KTAS 131119Z 18007KT 20/14 A2996 RMK A01 T02010142  RH  069%=      5-min Rain = 0
KTAS 131120Z 18007KT 20/14 A2996 RMK A01 T02010142  RH  069%=      5-min Rain = 0
KTAS 131121Z 18006KT 20/14 A2996 RMK A01 T02010142  RH  069%=      5-min Rain = 0
KTAS 131122Z 18006KT 20/14 A2996 RMK A01 T02000142  RH  069%=      5-min Rain = 0
KTAS 131123Z 18007KT 20/14 A2996 RMK A01 T02000142  RH  069%=      5-min Rain = 0
KTAS 131124Z 18006KT 20/14 A2996 RMK A01 T02000141  RH  069%=      5-min Rain = 0
KTAS 131125Z 18006KT 20/14 A2996 RMK A01 T02000141  RH  069%=      5-min Rain = 0
KTAS 131126Z 17006KT 20/14 A2996 RMK A01 T01990141  RH  069%=      5-min Rain = 0
KTAS 131127Z 17005KT 20/14 A2996 RMK A01 T01990141  RH  069%=      5-min Rain = 0
KTAS 131128Z 17006KT 20/14 A2996 RMK A01 T01980141  RH  069%=      5-min Rain = 0
KTAS 131129Z 17006KT 20/14 A2996 RMK A01 T01980141  RH  070%=      5-min Rain = 0
KTAS 131130Z 17006KT 20/14 A2996 RMK A01 T01980141  RH  070%=      5-min Rain = 0
KTAS 131131Z 17006KT 20/14 A2996 RMK A01 T01980141  RH  070%=      5-min Rain = 0
KTAS 131132Z 16006KT 20/14 A2996 RMK A01 T01980141  RH  070%=      5-min Rain = 0
KTAS 131133Z 17005KT 20/14 A2996 RMK A01 T01980141  RH  070%=      5-min Rain = 0
KTAS 131134Z 17005KT 20/14 A2997 RMK A01 T01980141  RH  070%=      5-min Rain = 0
KTAS 131135Z 16005KT 20/14 A2997 RMK A01 T01980141  RH  070%=      5-min Rain = 0
KTAS 131136Z 17006KT 20/14 A2997 RMK A01 T01980141  RH  070%=      5-min Rain = 0
KTAS 131137Z 17006KT 20/14 A2997 RMK A01 T01980141  RH  070%=      5-min Rain = 0
KTAS 131138Z 16005KT 20/14 A2997 RMK A01 T01980141  RH  070%=      5-min Rain = 0
KTAS 131139Z 16005KT 20/14 A2997 RMK A01 T01970140  RH  070%=      5-min Rain = 0
KTAS 131140Z 16006KT 20/14 A2997 RMK A01 T01970140  RH  070%=      5-min Rain = 0
KTAS 131141Z 16006KT 20/14 A2997 RMK A01 T01960140  RH  070%=      5-min Rain = 0
KTAS 131142Z 16006KT 20/14 A2997 RMK A01 T01960140  RH  070%=      5-min Rain = 0
KTAS 131143Z 16006KT 20/14 A2997 RMK A01 T01960140  RH  070%=      5-min Rain = 0
KTAS 131144Z 16006KT 20/14 A2997 RMK A01 T01960140  RH  070%=      5-min Rain = 0
KTAS 131145Z 16006KT 20/14 A2997 RMK A01 T01960140  RH  070%=      5-min Rain = 0
KTAS 131146Z 16006KT 20/14 A2997 RMK A01 T01960141  RH  070%=      5-min Rain = 0
KTAS 131147Z 16007KT 20/14 A2997 RMK A01 T01960140  RH  070%=      5-min Rain = 0
KTAS 131148Z 16007KT 20/14 A2997 RMK A01 T01960141  RH  070%=      5-min Rain = 0
KTAS 131149Z 16007KT 20/14 A2997 RMK A01 T01960140  RH  070%=      5-min Rain = 0
KTAS 131150Z 16007KT 20/14 A2997 RMK A01 T01950140  RH  070%=      5-min Rain = 0
KTAS 131151Z 16006KT 20/14 A2997 RMK A01 T01950140  RH  070%=      5-min Rain = 0
KTAS 131152Z 16006KT 20/14 A2997 RMK A01 T01950140  RH  070%=      5-min Rain = 0
KTAS 131153Z 16006KT 19/14 A2997 RMK A01 T01940139  RH  071%=      5-min Rain = 0
KTAS 131154Z 16006KT 19/14 A2997 RMK A01 T01930139  RH  071%=      5-min Rain = 0
KTAS 131155Z 16006KT 19/14 A2997 RMK A01 T01930139  RH  071%=      5-min Rain = 0
KTAS 131156Z 16006KT 19/14 A2997 RMK A01 T01930139  RH  071%=      5-min Rain = 0
KTAS 131157Z 16006KT 19/14 A2997 RMK A01 T01920139  RH  071%=      5-min Rain = 0
KTAS 131158Z 17006KT 19/14 A2997 RMK A01 T01920139  RH  071%=      5-min Rain = 0
KTAS 131159Z 16006KT 19/14 A2997 RMK A01 T01920139  RH  072%=      5-min Rain = 0
KTAS 131200Z 16006KT 19/14 A2997 RMK A01 T01920139  RH  072%=      5-min Rain = 0
KTAS 131201Z 16006KT 19/14 A2997 RMK A01 T01920140  RH  072%=      5-min Rain = 0
KTAS 131202Z 16007KT 19/14 A2997 RMK A01 T01920140  RH  072%=      5-min Rain = 0
KTAS 131203Z 17006KT 19/14 A2997 RMK A01 T01920140  RH  072%=      5-min Rain = 0
KTAS 131204Z 17007KT 19/14 A2997 RMK A01 T01930140  RH  071%=      5-min Rain = 0
KTAS 131205Z 17007KT 19/14 A2997 RMK A01 T01930140  RH  072%=      5-min Rain = 0
KTAS 131206Z 17007KT 19/14 A2997 RMK A01 T01930140  RH  071%=      5-min Rain = 0
KTAS 131207Z 17006KT 19/14 A2997 RMK A01 T01940141  RH  071%=      5-min Rain = 0
KTAS 131208Z 17007KT 19/14 A2997 RMK A01 T01940141  RH  071%=      5-min Rain = 0
KTAS 131209Z 17006KT 20/14 A2997 RMK A01 T01950141  RH  071%=      5-min Rain = 0
KTAS 131210Z 17007KT 20/14 A2997 RMK A01 T01950141  RH  071%=      5-min Rain = 0
KTAS 131211Z 17007KT 20/14 A2997 RMK A01 T01950141  RH  071%=      5-min Rain = 0
KTAS 131212Z 17007KT 20/14 A2997 RMK A01 T01950142  RH  071%=      5-min Rain = 0
KTAS 131213Z 17008KT 20/14 A2997 RMK A01 T01960142  RH  071%=      5-min Rain = 0
KTAS 131214Z 17008KT 20/14 A2998 RMK A01 T01970142  RH  071%=      5-min Rain = 0
KTAS 131215Z 17008KT 20/14 A2998 RMK A01 T01970142  RH  071%=      5-min Rain = 0
KTAS 131216Z 17008KT 20/14 A2998 RMK A01 T01980142  RH  070%=      5-min Rain = 0
KTAS 131217Z 17007KT 20/14 A2998 RMK A01 T01980143  RH  070%=      5-min Rain = 0
KTAS 131218Z 17007KT 20/14 A2998 RMK A01 T01990143  RH  070%=      5-min Rain = 0
KTAS 131219Z 17007KT 20/14 A2998 RMK A01 T01990143  RH  070%=      5-min Rain = 0
KTAS 131220Z 17008KT 20/14 A2998 RMK A01 T01990143  RH  070%=      5-min Rain = 0
KTAS 131221Z 17007KT 20/14 A2998 RMK A01 T02000143  RH  070%=      5-min Rain = 0
KTAS 131222Z 17007KT 20/14 A2998 RMK A01 T02000143  RH  070%=      5-min Rain = 0
KTAS 131223Z 17007KT 20/14 A2998 RMK A01 T02010143  RH  070%=      5-min Rain = 0
KTAS 131224Z 17007KT 20/14 A2998 RMK A01 T02010144  RH  069%=      5-min Rain = 0
KTAS 131225Z 17007KT 20/14 A2998 RMK A01 T02020144  RH  069%=      5-min Rain = 0
KTAS 131226Z 17007KT 20/14 A2998 RMK A01 T02030144  RH  069%=      5-min Rain = 0
KTAS 131227Z 17007KT 20/14 A2998 RMK A01 T02030144  RH  069%=      5-min Rain = 0
KTAS 131228Z 17007KT 20/14 A2998 RMK A01 T02040144  RH  069%=      5-min Rain = 0
KTAS 131229Z 17007KT 20/14 A2998 RMK A01 T02040144  RH  068%=      5-min Rain = 0
KTAS 131230Z 17008KT 21/14 A2998 RMK A01 T02050144  RH  068%=      5-min Rain = 0
KTAS 131231Z 17009KT 21/14 A2998 RMK A01 T02050144  RH  068%=      5-min Rain = 0
KTAS 131232Z 17008KT 21/14 A2998 RMK A01 T02060144  RH  068%=      5-min Rain = 0
KTAS 131233Z 17008KT 21/14 A2998 RMK A01 T02060144  RH  068%=      5-min Rain = 0
KTAS 131234Z 17009KT 21/14 A2998 RMK A01 T02060144  RH  067%=      5-min Rain = 0
KTAS 131235Z 17009KT 21/14 A2998 RMK A01 T02070144  RH  067%=      5-min Rain = 0
KTAS 131236Z 17009KT 21/14 A2998 RMK A01 T02070144  RH  067%=      5-min Rain = 0
KTAS 131237Z 17008KT 21/14 A2998 RMK A01 T02070144  RH  067%=      5-min Rain = 0
KTAS 131238Z 17008KT 21/14 A2998 RMK A01 T02070144  RH  067%=      5-min Rain = 0
KTAS 131239Z 17008KT 21/14 A2998 RMK A01 T02070144  RH  067%=      5-min Rain = 0
KTAS 131240Z 17008KT 21/14 A2998 RMK A01 T02070144  RH  067%=      5-min Rain = 0
KTAS 131241Z 17008KT 21/14 A2998 RMK A01 T02070144  RH  067%=      5-min Rain = 0
KTAS 131242Z 17008KT 21/14 A2998 RMK A01 T02070144  RH  067%=      5-min Rain = 0
KTAS 131243Z 17008KT 21/14 A2998 RMK A01 T02070144  RH  067%=      5-min Rain = 0
KTAS 131244Z 17007KT 21/14 A2998 RMK A01 T02070144  RH  067%=      5-min Rain = 0
KTAS 131245Z 17007KT 21/14 A2998 RMK A01 T02070144  RH  067%=      5-min Rain = 0
KTAS 131246Z 17009KT 21/14 A2998 RMK A01 T02060144  RH  068%=      5-min Rain = 0
KTAS 131247Z 17008KT 21/14 A2998 RMK A01 T02060144  RH  068%=      5-min Rain = 0
KTAS 131248Z 17008KT 21/14 A2998 RMK A01 T02060144  RH  068%=      5-min Rain = 0
KTAS 131249Z 17007KT 21/15 A2998 RMK A01 T02060145  RH  068%=      5-min Rain = 0
KTAS 131250Z 17007KT 21/15 A2998 RMK A01 T02060145  RH  068%=      5-min Rain = 0
KTAS 131251Z 17008KT 21/15 A2999 RMK A01 T02060145  RH  068%=      5-min Rain = 0
KTAS 131252Z 17008KT 21/15 A2999 RMK A01 T02060145  RH  068%=      5-min Rain = 0
KTAS 131253Z 16008KT 21/15 A2999 RMK A01 T02060145  RH  068%=      5-min Rain = 0
KTAS 131254Z 16008KT 21/15 A2999 RMK A01 T02060145  RH  068%=      5-min Rain = 0
KTAS 131255Z 16009KT 21/15 A2999 RMK A01 T02060145  RH  068%=      5-min Rain = 0
KTAS 131256Z 17007KT 21/15 A2999 RMK A01 T02060145  RH  068%=      5-min Rain = 0
KTAS 131257Z 17007KT 21/15 A2999 RMK A01 T02070145  RH  068%=      5-min Rain = 0
KTAS 131258Z 16007KT 21/15 A2999 RMK A01 T02060145  RH  068%=      5-min Rain = 0
KTAS 131259Z 17007KT 21/15 A2999 RMK A01 T02060145  RH  068%=      5-min Rain = 0
KTAS 131300Z 16008KT 21/15 A2999 RMK A01 T02070145  RH  068%=      5-min Rain = 0
KTAS 131301Z 17008KT 21/15 A2999 RMK A01 T02070145  RH  068%=      5-min Rain = 0
KTAS 131302Z 17008KT 21/15 A2999 RMK A01 T02070145  RH  068%=      5-min Rain = 0
KTAS 131303Z 17009KT 21/15 A2999 RMK A01 T02070145  RH  068%=      5-min Rain = 0
KTAS 131304Z 17008KT 21/15 A2999 RMK A01 T02070146  RH  068%=      5-min Rain = 0
KTAS 131305Z 16008KT 21/15 A2999 RMK A01 T02070146  RH  068%=      5-min Rain = 0
KTAS 131306Z 17009KT 21/15 A2999 RMK A01 T02070146  RH  068%=      5-min Rain = 0
KTAS 131307Z 17009KT 21/15 A2999 RMK A01 T02070146  RH  068%=      5-min Rain = 0
KTAS 131308Z 17008KT 21/15 A2999 RMK A01 T02070146  RH  068%=      5-min Rain = 0
KTAS 131309Z 17008KT 21/15 A2999 RMK A01 T02080146  RH  068%=      5-min Rain = 0
KTAS 131310Z 17007KT 21/15 A2999 RMK A01 T02090147  RH  068%=      5-min Rain = 0
KTAS 131311Z 17008KT 21/15 A2999 RMK A01 T02100148  RH  067%=      5-min Rain = 0
KTAS 131312Z 17009KT 21/15 A2999 RMK A01 T02120148  RH  067%=      5-min Rain = 0
KTAS 131313Z 17011KT 21/15 A2999 RMK A01 T02130148  RH  066%=      5-min Rain = 0
KTAS 131314Z 17010KT 21/15 A2999 RMK A01 T02130147  RH  066%=      5-min Rain = 0
KTAS 131315Z 17009KT 21/15 A2999 RMK A01 T02130148  RH  066%=      5-min Rain = 0
KTAS 131316Z 17009KT 21/15 A2999 RMK A01 T02130148  RH  066%=      5-min Rain = 0
KTAS 131317Z 17010KT 21/15 A2999 RMK A01 T02130148  RH  066%=      5-min Rain = 0
KTAS 131318Z 17009KT 21/15 A2999 RMK A01 T02130148  RH  066%=      5-min Rain = 0
KTAS 131319Z 17009KT 21/15 A2999 RMK A01 T02130148  RH  066%=      5-min Rain = 0
KTAS 131320Z 17008KT 21/15 A30 RMK A01 T02130148  RH  066%=      5-min Rain = 0
KTAS 131321Z 17009KT 21/15 A30 RMK A01 T02130148  RH  066%=      5-min Rain = 0
KTAS 131322Z 17010KT 21/15 A30 RMK A01 T02140148  RH  066%=      5-min Rain = 0
KTAS 131323Z 17011KT 21/15 A30 RMK A01 T02140149  RH  066%=      5-min Rain = 0
KTAS 131324Z 17009KT 21/15 A30 RMK A01 T02140149  RH  066%=      5-min Rain = 0
KTAS 131325Z 17010KT 22/15 A30 RMK A01 T02150149  RH  066%=      5-min Rain = 0
KTAS 131326Z 17010KT 22/15 A30 RMK A01 T02150150  RH  066%=      5-min Rain = 0
KTAS 131327Z 17010KT 22/15 A30 RMK A01 T02160150  RH  066%=      5-min Rain = 0
KTAS 131328Z 17010KT 22/15 A30 RMK A01 T02180151  RH  066%=      5-min Rain = 0
KTAS 131329Z 17009KT 22/15 A30 RMK A01 T02210152  RH  065%=      5-min Rain = 0
KTAS 131330Z 17008KT 22/15 A30 RMK A01 T02220152  RH  064%=      5-min Rain = 0
KTAS 131331Z 17009G14KT 22/15 A30 RMK A01 T02240153  RH  064%=      5-min Rain = 0
KTAS 131332Z 17012KT 22/15 A30 RMK A01 T02240152  RH  064%=      5-min Rain = 0
KTAS 131333Z 17014KT 22/15 A30 RMK A01 T02230152  RH  064%=      5-min Rain = 0
KTAS 131334Z 18013KT 22/15 A30 RMK A01 T02230153  RH  064%=      5-min Rain = 0
KTAS 131335Z 18012KT 23/15 A30 RMK A01 T02250153  RH  064%=      5-min Rain = 0
KTAS 131336Z 17012KT 23/15 A30 RMK A01 T02270154  RH  064%=      5-min Rain = 0
KTAS 131337Z 17011KT 23/15 A30 RMK A01 T02280154  RH  063%=      5-min Rain = 0
KTAS 131338Z 17013KT 23/15 A30 RMK A01 T02290154  RH  063%=      5-min Rain = 0
KTAS 131339Z 17012KT 23/16 A30 RMK A01 T02300155  RH  062%=      5-min Rain = 0
KTAS 131340Z 17013KT 23/16 A30 RMK A01 T02320155  RH  062%=      5-min Rain = 0
KTAS 131341Z 17013KT 23/16 A30 RMK A01 T02320155  RH  062%=      5-min Rain = 0
KTAS 131342Z 18015KT 23/16 A30 RMK A01 T02320155  RH  062%=      5-min Rain = 0
KTAS 131343Z 17012KT 23/16 A30 RMK A01 T02320155  RH  062%=      5-min Rain = 0
KTAS 131344Z 18012KT 23/16 A30 RMK A01 T02340156  RH  062%=      5-min Rain = 0
KTAS 131345Z 17013KT 24/16 A30 RMK A01 T02350155  RH  061%=      5-min Rain = 0
KTAS 131346Z 18014KT 23/16 A30 RMK A01 T02340155  RH  061%=      5-min Rain = 0
KTAS 131347Z 17013KT 24/16 A30 RMK A01 T02350155  RH  061%=      5-min Rain = 0
KTAS 131348Z 17013KT 24/16 A30 RMK A01 T02350155  RH  061%=      5-min Rain = 0
KTAS 131349Z 17012KT 24/16 A30 RMK A01 T02350155  RH  061%=      5-min Rain = 0
KTAS 131350Z 17013KT 23/16 A30 RMK A01 T02340155  RH  061%=      5-min Rain = 0
KTAS 131351Z 18013KT 24/16 A30 RMK A01 T02350156  RH  061%=      5-min Rain = 0
KTAS 131352Z 17013KT 24/16 A30 RMK A01 T02370156  RH  061%=      5-min Rain = 0
KTAS 131353Z 18014KT 24/16 A30 RMK A01 T02390157  RH  060%=      5-min Rain = 0
KTAS 131354Z 18014KT 24/16 A30 RMK A01 T02400156  RH  059%=      5-min Rain = 0
KTAS 131355Z 18013KT 24/16 A30 RMK A01 T02390156  RH  060%=      5-min Rain = 0
KTAS 131356Z 18014KT 24/16 A30 RMK A01 T02370155  RH  060%=      5-min Rain = 0
KTAS 131357Z 17012KT 24/16 A30 RMK A01 T02360156  RH  061%=      5-min Rain = 0
KTAS 131358Z 18012KT 24/16 A30 RMK A01 T02370156  RH  060%=      5-min Rain = 0
KTAS 131359Z 18013KT 24/16 A30 RMK A01 T02380156  RH  060%=      5-min Rain = 0
KTAS 131400Z 18013KT 24/16 A30 RMK A01 T02390156  RH  060%=      5-min Rain = 0
KTAS 131401Z 17013KT 24/16 A30 RMK A01 T02380156  RH  060%=      5-min Rain = 0
KTAS 131402Z 17015KT 24/16 A30 RMK A01 T02380156  RH  060%=      5-min Rain = 0
KTAS 131403Z 18012KT 24/16 A30 RMK A01 T02390157  RH  060%=      5-min Rain = 0
KTAS 131404Z 18012KT 24/16 A30 RMK A01 T02400157  RH  060%=      5-min Rain = 0
KTAS 131405Z 17015KT 24/16 A30 RMK A01 T02400157  RH  060%=      5-min Rain = 0
KTAS 131406Z 18014KT 24/16 A30 RMK A01 T02390156  RH  060%=      5-min Rain = 0
KTAS 131407Z 19015KT 24/16 A30 RMK A01 T02390157  RH  060%=      5-min Rain = 0
KTAS 131408Z 19012KT 24/16 A30 RMK A01 T02380157  RH  060%=      5-min Rain = 0
KTAS 131409Z 19013KT 24/16 A30 RMK A01 T02390158  RH  060%=      5-min Rain = 0
KTAS 131410Z 19016KT 24/16 A30 RMK A01 T02400158  RH  060%=      5-min Rain = 0
KTAS 131411Z 19013KT 24/16 A30 RMK A01 T02410158  RH  060%=      5-min Rain = 0
KTAS 131412Z 18014KT 24/16 A30 RMK A01 T02420158  RH  059%=      5-min Rain = 0
KTAS 131413Z 18016KT 24/16 A30 RMK A01 T02420157  RH  059%=      5-min Rain = 0
KTAS 131414Z 18014KT 24/16 A3001 RMK A01 T02410157  RH  060%=      5-min Rain = 0
KTAS 131415Z 18015G20KT 24/16 A3001 RMK A01 T02410157  RH  060%=      5-min Rain = 0
KTAS 131416Z 18014KT 24/16 A3001 RMK A01 T02410158  RH  060%=      5-min Rain = 0
KTAS 131417Z 18014KT 24/16 A3001 RMK A01 T02420158  RH  060%=      5-min Rain = 0
KTAS 131418Z 18014KT 24/16 A3001 RMK A01 T02410158  RH  060%=      5-min Rain = 0
KTAS 131419Z 18015KT 24/16 A3001 RMK A01 T02420158  RH  059%=      5-min Rain = 0
KTAS 131420Z 18013KT 24/16 A3001 RMK A01 T02420159  RH  059%=      5-min Rain = 0
KTAS 131421Z 18014G19KT 25/16 A3001 RMK A01 T02450159  RH  059%=      5-min Rain = 0
KTAS 131422Z 18015KT 24/16 A3001 RMK A01 T02440158  RH  059%=      5-min Rain = 0
KTAS 131423Z 18013KT 24/16 A3001 RMK A01 T02420158  RH  059%=      5-min Rain = 0
KTAS 131424Z 18014KT 24/16 A3001 RMK A01 T02420158  RH  059%=      5-min Rain = 0
KTAS 131425Z 19012KT 24/16 A3001 RMK A01 T02420159  RH  060%=      5-min Rain = 0
KTAS 131426Z 18011KT 24/16 A3001 RMK A01 T02430159  RH  060%=      5-min Rain = 0
KTAS 131427Z 18012KT 24/16 A3001 RMK A01 T02440159  RH  059%=      5-min Rain = 0
KTAS 131428Z 18013KT 24/16 A3001 RMK A01 T02440159  RH  059%=      5-min Rain = 0
KTAS 131429Z 18013KT 24/16 A3001 RMK A01 T02430159  RH  059%=      5-min Rain = 0
KTAS 131430Z 19013KT 24/16 A3001 RMK A01 T02420159  RH  059%=      5-min Rain = 0
KTAS 131431Z 18012KT 24/16 A3001 RMK A01 T02420159  RH  060%=      5-min Rain = 0
KTAS 131432Z 19009KT 24/16 A3001 RMK A01 T02440160  RH  060%=      5-min Rain = 0
KTAS 131433Z 19012KT 25/16 A3001 RMK A01 T02450160  RH  059%=      5-min Rain = 0
KTAS 131434Z 18013KT 24/16 A3001 RMK A01 T02440161  RH  059%=      5-min Rain = 0
KTAS 131435Z 19014KT 25/16 A3001 RMK A01 T02450161  RH  059%=      5-min Rain = 0
KTAS 131436Z 19012KT 25/16 A3001 RMK A01 T02460161  RH  059%=      5-min Rain = 0
KTAS 131437Z 20013KT 25/16 A3001 RMK A01 T02450160  RH  059%=      5-min Rain = 0
KTAS 131438Z 18011G16KT 25/16 A3001 RMK A01 T02450161  RH  060%=      5-min Rain = 0
KTAS 131439Z 18014KT 25/16 A3001 RMK A01 T02460161  RH  059%=      5-min Rain = 0
KTAS 131440Z 18013KT 25/16 A3001 RMK A01 T02470161  RH  059%=      5-min Rain = 0
KTAS 131441Z 19014KT 25/16 A3001 RMK A01 T02470161  RH  059%=      5-min Rain = 0
KTAS 131442Z 18014G19KT 25/16 A3001 RMK A01 T02460161  RH  059%=      5-min Rain = 0
KTAS 131443Z 19013KT 25/16 A3001 RMK A01 T02450161  RH  060%=      5-min Rain = 0
KTAS 131444Z 19014KT 25/16 A3001 RMK A01 T02450161  RH  060%=      5-min Rain = 0
KTAS 131445Z 19015KT 25/16 A3001 RMK A01 T02450161  RH  059%=      5-min Rain = 0
KTAS 131446Z 19015KT 25/16 A3001 RMK A01 T02450161  RH  059%=      5-min Rain = 0
KTAS 131447Z 18013KT 24/16 A3001 RMK A01 T02440162  RH  060%=      5-min Rain = 0
KTAS 131448Z 18014KT 25/16 A3001 RMK A01 T02450162  RH  060%=      5-min Rain = 0
KTAS 131449Z 18015KT 25/16 A3001 RMK A01 T02460162  RH  059%=      5-min Rain = 0
KTAS 131450Z 18015KT 25/16 A3001 RMK A01 T02460162  RH  060%=      5-min Rain = 0
KTAS 131451Z 18015KT 25/16 A3001 RMK A01 T02450162  RH  060%=      5-min Rain = 0
KTAS 131452Z 18013KT 24/16 A3001 RMK A01 T02440163  RH  061%=      5-min Rain = 0
KTAS 131453Z 19014KT 24/16 A3001 RMK A01 T02440163  RH  060%=      5-min Rain = 0
KTAS 131454Z 19015KT 25/16 A3001 RMK A01 T02450163  RH  060%=      5-min Rain = 0
KTAS 131455Z 19015KT 25/16 A3001 RMK A01 T02450162  RH  060%=      5-min Rain = 0
KTAS 131456Z 18014KT 25/16 A3001 RMK A01 T02450162  RH  060%=      5-min Rain = 0
KTAS 131457Z 18014KT 25/16 A3001 RMK A01 T02450162  RH  060%=      5-min Rain = 0
KTAS 131458Z 18014KT 25/16 A3001 RMK A01 T02460162  RH  059%=      5-min Rain = 0
KTAS 131459Z 17014KT 25/16 A3001 RMK A01 T02450161  RH  060%=      5-min Rain = 0
KTAS 131500Z 19013KT 25/16 A3001 RMK A01 T02450162  RH  060%=      5-min Rain = 0
KTAS 131501Z 19014KT 25/16 A3001 RMK A01 T02470163  RH  060%=      5-min Rain = 0
KTAS 131502Z 20012KT 25/16 A3001 RMK A01 T02480164  RH  060%=      5-min Rain = 0
KTAS 131503Z 20012KT 25/16 A3001 RMK A01 T02500164  RH  059%=      5-min Rain = 0
KTAS 131504Z 19010KT 25/16 A3001 RMK A01 T02500164  RH  059%=      5-min Rain = 0
KTAS 131505Z 19009KT 25/17 A3001 RMK A01 T02510165  RH  059%=      5-min Rain = 0
KTAS 131506Z 18012KT 25/17 A3001 RMK A01 T02530165  RH  058%=      5-min Rain = 0
KTAS 131507Z 19013KT 25/17 A3001 RMK A01 T02540165  RH  058%=      5-min Rain = 0
KTAS 131508Z 17014KT 26/17 A3001 RMK A01 T02550165  RH  057%=      5-min Rain = 0
KTAS 131509Z 18014KT 25/16 A3001 RMK A01 T02540164  RH  057%=      5-min Rain = 0
KTAS 131510Z 18012KT 25/16 A3001 RMK A01 T02530164  RH  058%=      5-min Rain = 0
KTAS 131511Z 18011KT 25/16 A3001 RMK A01 T02530164  RH  058%=      5-min Rain = 0
KTAS 131512Z 19012KT 26/17 A3001 RMK A01 T02550165  RH  058%=      5-min Rain = 0
KTAS 131513Z 19013KT 26/16 A3001 RMK A01 T02550164  RH  057%=      5-min Rain = 0
KTAS 131514Z 19013KT 25/16 A3001 RMK A01 T02540164  RH  057%=      5-min Rain = 0
KTAS 131515Z 18012KT 25/16 A3001 RMK A01 T02540164  RH  058%=      5-min Rain = 0
KTAS 131516Z 17011KT 25/16 A3001 RMK A01 T02540164  RH  057%=      5-min Rain = 0
KTAS 131517Z 18013KT 25/17 A3001 RMK A01 T02540165  RH  058%=      5-min Rain = 0
KTAS 131518Z 18011KT 25/17 A3001 RMK A01 T02540165  RH  058%=      5-min Rain = 0
KTAS 131519Z 17014KT 25/17 A3001 RMK A01 T02540165  RH  058%=      5-min Rain = 0
KTAS 131520Z 19012KT 25/16 A3001 RMK A01 T02530164  RH  058%=      5-min Rain = 0
KTAS 131521Z 19013KT 25/16 A3001 RMK A01 T02540163  RH  057%=      5-min Rain = 0
KTAS 131522Z 20012KT 26/16 A3001 RMK A01 T02550163  RH  057%=      5-min Rain = 0
KTAS 131523Z 20011KT 26/16 A3001 RMK A01 T02550164  RH  057%=      5-min Rain = 0
KTAS 131524Z 19011KT 26/16 A3001 RMK A01 T02560164  RH  057%=      5-min Rain = 0
KTAS 131525Z 19012KT 26/16 A3001 RMK A01 T02570163  RH  056%=      5-min Rain = 0
KTAS 131526Z 21014KT 26/16 A3001 RMK A01 T02570162  RH  055%=      5-min Rain = 0
KTAS 131527Z 20012KT 26/16 A3001 RMK A01 T02560162  RH  056%=      5-min Rain = 0
KTAS 131528Z 19010KT 26/16 A3001 RMK A01 T02550161  RH  056%=      5-min Rain = 0
KTAS 131529Z 19009KT 25/16 A3001 RMK A01 T02540160  RH  056%=      5-min Rain = 0
KTAS 131530Z 20008KT 26/16 A3001 RMK A01 T02550159  RH  055%=      5-min Rain = 0
KTAS 131531Z 20012KT 26/16 A3001 RMK A01 T02580160  RH  055%=      5-min Rain = 0
KTAS 131532Z 20013KT 26/16 A3001 RMK A01 T02580158  RH  054%=      5-min Rain = 0
KTAS 131533Z 20012KT 26/16 A3001 RMK A01 T02560157  RH  054%=      5-min Rain = 0
KTAS 131534Z 21010KT 26/16 A3002 RMK A01 T02570159  RH  055%=      5-min Rain = 0
KTAS 131535Z 21009KT 26/16 A3001 RMK A01 T02580159  RH  054%=      5-min Rain = 0
KTAS 131536Z 20012KT 26/16 A3001 RMK A01 T02590161  RH  054%=      5-min Rain = 0
KTAS 131537Z 21012KT 26/16 A3001 RMK A01 T02590162  RH  055%=      5-min Rain = 0
KTAS 131538Z 21011KT 26/16 A3002 RMK A01 T02590162  RH  055%=      5-min Rain = 0
KTAS 131539Z 19011KT 26/16 A3002 RMK A01 T02580162  RH  055%=      5-min Rain = 0
KTAS 131540Z 19011KT 26/16 A3002 RMK A01 T02570163  RH  056%=      5-min Rain = 0
KTAS 131541Z 18010G15KT 26/16 A3002 RMK A01 T02570163  RH  056%=      5-min Rain = 0
KTAS 131542Z 19013KT 26/16 A3002 RMK A01 T02590162  RH  055%=      5-min Rain = 0
KTAS 131543Z 20011KT 26/16 A3002 RMK A01 T02590161  RH  055%=      5-min Rain = 0
KTAS 131544Z 20010KT 26/16 A3002 RMK A01 T02590162  RH  055%=      5-min Rain = 0
KTAS 131545Z 20012KT 26/16 A3002 RMK A01 T02610164  RH  055%=      5-min Rain = 0
KTAS 131546Z 19010KT 26/17 A3002 RMK A01 T02600165  RH  056%=      5-min Rain = 0
KTAS 131547Z 18011KT 26/16 A3002 RMK A01 T02610164  RH  055%=      5-min Rain = 0
KTAS 131548Z 18012KT 26/16 A3002 RMK A01 T02610163  RH  055%=      5-min Rain = 0
KTAS 131549Z 19011KT 26/16 A3002 RMK A01 T02610163  RH  055%=      5-min Rain = 0
KTAS 131550Z 19013KT 26/16 A3002 RMK A01 T02610163  RH  055%=      5-min Rain = 0
KTAS 131551Z 20010KT 26/16 A3002 RMK A01 T02590163  RH  055%=      5-min Rain = 0
KTAS 131552Z 19012KT 26/16 A3002 RMK A01 T02610162  RH  055%=      5-min Rain = 0
KTAS 131553Z 20012KT 26/16 A3002 RMK A01 T02590160  RH  054%=      5-min Rain = 0
KTAS 131554Z 21010KT 26/16 A3002 RMK A01 T02590162  RH  055%=      5-min Rain = 0
KTAS 131555Z 19012KT 26/16 A3002 RMK A01 T02600163  RH  055%=      5-min Rain = 0
KTAS 131556Z 17011KT 26/16 A3002 RMK A01 T02620163  RH  054%=      5-min Rain = 0
KTAS 131557Z 18012KT 26/16 A3002 RMK A01 T02640162  RH  054%=      5-min Rain = 0
KTAS 131558Z 19012KT 26/16 A3002 RMK A01 T02640161  RH  053%=      5-min Rain = 0
KTAS 131559Z 20008KT 26/16 A3002 RMK A01 T02620161  RH  054%=      5-min Rain = 0
KTAS 131600Z 19010KT 26/16 A3002 RMK A01 T02640161  RH  053%=      5-min Rain = 0
KTAS 131601Z 18012KT 26/16 A3002 RMK A01 T02630161  RH  053%=      5-min Rain = 0
KTAS 131602Z 18012KT 26/16 A3002 RMK A01 T02630161  RH  053%=      5-min Rain = 0
KTAS 131603Z 18012KT 26/16 A3002 RMK A01 T02620161  RH  053%=      5-min Rain = 0
KTAS 131604Z 18012KT 26/16 A3002 RMK A01 T02640160  RH  053%=      5-min Rain = 0
KTAS 131605Z 18011KT 27/16 A3002 RMK A01 T02650160  RH  052%=      5-min Rain = 0
KTAS 131606Z 19012KT 27/16 A3002 RMK A01 T02660160  RH  052%=      5-min Rain = 0
KTAS 131607Z 19008KT 27/16 A3002 RMK A01 T02650160  RH  053%=      5-min Rain = 0
KTAS 131608Z 19010KT 27/16 A3001 RMK A01 T02670160  RH  052%=      5-min Rain = 0
KTAS 131609Z 19010KT 27/16 A3001 RMK A01 T02690160  RH  051%=      5-min Rain = 0
KTAS 131610Z 19009KT 27/16 A3001 RMK A01 T02690159  RH  051%=      5-min Rain = 0
KTAS 131611Z 19011KT 27/16 A3001 RMK A01 T02700160  RH  051%=      5-min Rain = 0
KTAS 131612Z 19010KT 27/16 A3001 RMK A01 T02700159  RH  050%=      5-min Rain = 0
KTAS 131613Z 18010KT 27/16 A3001 RMK A01 T02710160  RH  051%=      5-min Rain = 0
KTAS 131614Z 19013KT 28/16 A3001 RMK A01 T02750158  RH  049%=      5-min Rain = 0
KTAS 131615Z 20011KT 28/16 A3001 RMK A01 T02750155  RH  048%=      5-min Rain = 0
KTAS 131616Z 19011KT 27/16 A3001 RMK A01 T02720156  RH  049%=      5-min Rain = 0
KTAS 131617Z 18009KT 27/16 A3001 RMK A01 T02720157  RH  049%=      5-min Rain = 0
KTAS 131618Z 19009KT 28/16 A3001 RMK A01 T02780158  RH  048%=      5-min Rain = 0
KTAS 131619Z 20009KT 28/16 A3001 RMK A01 T02820158  RH  047%=      5-min Rain = 0
KTAS 131620Z 19009KT 28/16 A3001 RMK A01 T02830156  RH  046%=      5-min Rain = 0
KTAS 131621Z 19012KT 28/16 A3001 RMK A01 T02830155  RH  046%=      5-min Rain = 0
KTAS 131622Z 19010KT 28/15 A3001 RMK A01 T02820153  RH  045%=      5-min Rain = 0
KTAS 131623Z 19009KT 28/15 A3001 RMK A01 T02810152  RH  045%=      5-min Rain = 0
KTAS 131624Z 17010KT 28/15 A3001 RMK A01 T02790152  RH  046%=      5-min Rain = 0
KTAS 131625Z 19009KT 28/15 A3001 RMK A01 T02810154  RH  046%=      5-min Rain = 0
KTAS 131626Z 22010KT 29/15 A3001 RMK A01 T02850146  RH  043%=      5-min Rain = 0
KTAS 131627Z 22008KT 28/14 A3001 RMK A01 T02830142  RH  042%=      5-min Rain = 0
KTAS 131628Z 19008KT 28/15 A3001 RMK A01 T02790145  RH  044%=      5-min Rain = 0
KTAS 131629Z 19006KT 28/15 A3001 RMK A01 T02790146  RH  044%=      5-min Rain = 0
KTAS 131630Z 20006G11KT 28/15 A3001 RMK A01 T02780148  RH  045%=      5-min Rain = 0
KTAS 131631Z 21012KT 28/14 A3001 RMK A01 T02800140  RH  042%=      5-min Rain = 0
KTAS 131632Z 22008KT 28/14 A3001 RMK A01 T02780137  RH  042%=      5-min Rain = 0
KTAS 131633Z 21009KT 28/14 A3001 RMK A01 T02770141  RH  043%=      5-min Rain = 0
KTAS 131634Z 22008KT 28/14 A3001 RMK A01 T02810143  RH  043%=      5-min Rain = 0
KTAS 131635Z 22009KT 28/15 A3001 RMK A01 T02800146  RH  044%=      5-min Rain = 0
KTAS 131636Z 20011KT 28/14 A3001 RMK A01 T02780144  RH  044%=      5-min Rain = 0
KTAS 131637Z 20010KT 28/14 A3001 RMK A01 T02780140  RH  043%=      5-min Rain = 0
KTAS 131638Z 19008KT 28/14 A3001 RMK A01 T02800138  RH  042%=      5-min Rain = 0
KTAS 131639Z 20004KT 28/14 A3001 RMK A01 T02790138  RH  042%=      5-min Rain = 0
KTAS 131640Z 19007KT 28/14 A3001 RMK A01 T02790140  RH  042%=      5-min Rain = 0
KTAS 131641Z 19008KT 28/14 A3001 RMK A01 T02790142  RH  043%=      5-min Rain = 0
KTAS 131642Z 19011KT 28/15 A3001 RMK A01 T02820145  RH  043%=      5-min Rain = 0
KTAS 131643Z 19009KT 28/14 A3001 RMK A01 T02810142  RH  042%=      5-min Rain = 0
KTAS 131644Z 19013KT 28/14 A3001 RMK A01 T02820136  RH  041%=      5-min Rain = 0
KTAS 131645Z 19008KT 28/13 A3001 RMK A01 T02820134  RH  040%=      5-min Rain = 0
KTAS 131646Z 19008KT 28/13 A3001 RMK A01 T02830132  RH  039%=      5-min Rain = 0
KTAS 131647Z 19007KT 29/13 A3001 RMK A01 T02850132  RH  039%=      5-min Rain = 0
KTAS 131648Z 19006KT 29/14 A3001 RMK A01 T02850136  RH  040%=      5-min Rain = 0
KTAS 131649Z 20008G13KT 29/14 A3001 RMK A01 T02860137  RH  040%=      5-min Rain = 0
KTAS 131650Z 19009KT 29/14 A3001 RMK A01 T02850138  RH  040%=      5-min Rain = 0
KTAS 131651Z 19007KT 28/14 A3001 RMK A01 T02830138  RH  041%=      5-min Rain = 0
KTAS 131652Z 18010KT 29/14 A3001 RMK A01 T02850140  RH  041%=      5-min Rain = 0
KTAS 131653Z 18009KT 29/14 A3001 RMK A01 T02850137  RH  040%=      5-min Rain = 0
KTAS 131654Z 19008KT 28/14 A3001 RMK A01 T02830139  RH  041%=      5-min Rain = 0
KTAS 131655Z 20007KT 29/14 A3001 RMK A01 T02850139  RH  041%=      5-min Rain = 0
KTAS 131656Z 21008KT 29/14 A3001 RMK A01 T02870141  RH  041%=      5-min Rain = 0
KTAS 131657Z 22008KT 29/14 A3001 RMK A01 T02860140  RH  041%=      5-min Rain = 0
KTAS 131658Z 21009KT 29/14 A3001 RMK A01 T02890140  RH  040%=      5-min Rain = 0
KTAS 131659Z 19007KT 29/14 A3001 RMK A01 T02920141  RH  040%=      5-min Rain = 0
KTAS 131700Z 23005KT 29/14 A3001 RMK A01 T02920140  RH  039%=      5-min Rain = 0
KTAS 131701Z 23006KT 29/13 A3001 RMK A01 T02900134  RH  038%=      5-min Rain = 0
KTAS 131702Z 20011KT 29/14 A3001 RMK A01 T02880140  RH  040%=      5-min Rain = 0
KTAS 131703Z 19012KT 29/14 A3001 RMK A01 T02900140  RH  040%=      5-min Rain = 0
KTAS 131704Z 19010KT 29/14 A3001 RMK A01 T02870140  RH  041%=      5-min Rain = 0
KTAS 131705Z 21008KT 29/14 A3001 RMK A01 T02870140  RH  041%=      5-min Rain = 0
KTAS 131706Z 21008KT 29/14 A3001 RMK A01 T02860138  RH  040%=      5-min Rain = 0
KTAS 131707Z 21009KT 29/14 A30 RMK A01 T02860138  RH  040%=      5-min Rain = 0
KTAS 131708Z 22008KT 29/13 A30 RMK A01 T02880134  RH  039%=      5-min Rain = 0
KTAS 131709Z 22007KT 29/14 A30 RMK A01 T02870136  RH  039%=      5-min Rain = 0
KTAS 131710Z 19006KT 29/14 A30 RMK A01 T02880140  RH  040%=      5-min Rain = 0
KTAS 131711Z 19011KT 29/14 A30 RMK A01 T02860141  RH  041%=      5-min Rain = 0
KTAS 131712Z 22011KT 29/14 A30 RMK A01 T02890142  RH  040%=      5-min Rain = 0
KTAS 131713Z 22009KT 29/14 A30 RMK A01 T02930142  RH  040%=      5-min Rain = 0
KTAS 131714Z 22009KT 29/14 A30 RMK A01 T02940140  RH  039%=      5-min Rain = 0
KTAS 131715Z 21010KT 29/14 A30 RMK A01 T02920142  RH  040%=      5-min Rain = 0
KTAS 131716Z 18008KT 29/14 A30 RMK A01 T02930144  RH  040%=      5-min Rain = 0
KTAS 131717Z 19010KT 30/15 A30 RMK A01 T02960145  RH  040%=      5-min Rain = 0
KTAS 131718Z 19010KT 30/14 A30 RMK A01 T02950144  RH  040%=      5-min Rain = 0
KTAS 131719Z 18011KT 30/15 A30 RMK A01 T02970146  RH  040%=      5-min Rain = 0
KTAS 131720Z 19008G13KT 30/14 A30 RMK A01 T03030144  RH  038%=      5-min Rain = 0
KTAS 131721Z 18007KT 30/14 A30 RMK A01 T03040142  RH  037%=      5-min Rain = 0
KTAS 131722Z 19009KT 30/14 A30 RMK A01 T03010140  RH  037%=      5-min Rain = 0
KTAS 131723Z 19010KT 30/14 A30 RMK A01 T02970138  RH  038%=      5-min Rain = 0
KTAS 131724Z 19009KT 30/14 A30 RMK A01 T02950138  RH  038%=      5-min Rain = 0
KTAS 131725Z 21007KT 30/14 A30 RMK A01 T02970137  RH  038%=      5-min Rain = 0
KTAS 131726Z 19007KT 30/13 A30 RMK A01 T02990133  RH  036%=      5-min Rain = 0
KTAS 131727Z 20007KT 30/13 A30 RMK A01 T02960133  RH  037%=      5-min Rain = 0
KTAS 131728Z 21007KT 29/14 A30 RMK A01 T02920135  RH  038%=      5-min Rain = 0
KTAS 131729Z 20008KT 30/14 A30 RMK A01 T02960137  RH  038%=      5-min Rain = 0
KTAS 131730Z 20011G16KT 30/14 A30 RMK A01 T03020138  RH  037%=      5-min Rain = 0
KTAS 131731Z 19010KT 30/14 A30 RMK A01 T03020138  RH  037%=      5-min Rain = 0
KTAS 131732Z 20008KT 30/14 A30 RMK A01 T03000137  RH  037%=      5-min Rain = 0
KTAS 131733Z 20006KT 30/14 A30 RMK A01 T02990137  RH  037%=      5-min Rain = 0
KTAS 131734Z 21008KT 30/14 A30 RMK A01 T02990135  RH  037%=      5-min Rain = 0
KTAS 131735Z 20008KT 30/13 A2999 RMK A01 T02980133  RH  036%=      5-min Rain = 0
KTAS 131736Z 20009KT 30/13 A2999 RMK A01 T02960130  RH  036%=      5-min Rain = 0
KTAS 131737Z 19012KT 29/13 A2999 RMK A01 T02930129  RH  036%=      5-min Rain = 0
KTAS 131738Z 18009KT 29/13 A2999 RMK A01 T02940128  RH  036%=      5-min Rain = 0
KTAS 131739Z 18007KT 30/13 A2999 RMK A01 T02950129  RH  036%=      5-min Rain = 0
KTAS 131740Z 20007KT 30/13 A2999 RMK A01 T02990130  RH  036%=      5-min Rain = 0
KTAS 131741Z 22006KT 30/13 A2999 RMK A01 T03040131  RH  035%=      5-min Rain = 0
KTAS 131742Z 22007KT 31/13 A2999 RMK A01 T03100132  RH  034%=      5-min Rain = 0
KTAS 131743Z 20007KT 31/13 A2999 RMK A01 T03130130  RH  033%=      5-min Rain = 0
KTAS 131744Z 22010KT 31/13 A2999 RMK A01 T03130130  RH  033%=      5-min Rain = 0
KTAS 131745Z 24009KT 31/13 A2999 RMK A01 T03120129  RH  033%=      5-min Rain = 0
KTAS 131746Z 24006KT 31/13 A2999 RMK A01 T03100130  RH  033%=      5-min Rain = 0
KTAS 131747Z 21006KT 31/13 A2999 RMK A01 T03140130  RH  033%=      5-min Rain = 0
KTAS 131748Z 21008KT 32/13 A2999 RMK A01 T03170125  RH  031%=      5-min Rain = 0
KTAS 131749Z 20011KT 31/12 A2999 RMK A01 T03100124  RH  032%=      5-min Rain = 0
KTAS 131750Z 20008KT 31/12 A2999 RMK A01 T03060123  RH  033%=      5-min Rain = 0
KTAS 131751Z 21007KT 31/12 A2999 RMK A01 T03070124  RH  033%=      5-min Rain = 0
KTAS 131752Z 21006KT 31/12 A2999 RMK A01 T03050122  RH  033%=      5-min Rain = 0
KTAS 131753Z 21009KT 31/12 A2999 RMK A01 T03070122  RH  032%=      5-min Rain = 0
KTAS 131754Z 19007KT 31/12 A2999 RMK A01 T03080122  RH  032%=      5-min Rain = 0
KTAS 131755Z 20007KT 31/12 A2998 RMK A01 T03100123  RH  032%=      5-min Rain = 0
KTAS 131756Z 23007KT 31/12 A2998 RMK A01 T03140119  RH  030%=      5-min Rain = 0
KTAS 131757Z 23006KT 31/12 A2998 RMK A01 T03130117  RH  030%=      5-min Rain = 0
KTAS 131758Z 23006KT 31/12 A2998 RMK A01 T03120117  RH  030%=      5-min Rain = 0
KTAS 131759Z 20008KT 32/12 A2998 RMK A01 T03150118  RH  030%=      5-min Rain = 0
KTAS 131800Z 19008KT 32/12 A2998 RMK A01 T03160115  RH  029%=      5-min Rain = 0
KTAS 131801Z 18006KT 31/11 A2998 RMK A01 T03140113  RH  029%=      5-min Rain = 0
KTAS 131802Z 20006KT 31/11 A2998 RMK A01 T03130109  RH  029%=      5-min Rain = 0
KTAS 131803Z 20007KT 31/11 A2998 RMK A01 T03110108  RH  029%=      5-min Rain = 0
KTAS 131804Z 17004KT 31/11 A2998 RMK A01 T03110106  RH  028%=      5-min Rain = 0
KTAS 131805Z 18006KT 31/11 A2998 RMK A01 T03120106  RH  028%=      5-min Rain = 0
KTAS 131806Z 20006KT 31/11 A2998 RMK A01 T03110108  RH  029%=      5-min Rain = 0
KTAS 131807Z 21007KT 31/11 A2998 RMK A01 T03100114  RH  030%=      5-min Rain = 0
KTAS 131808Z 23003KT 31/12 A2998 RMK A01 T03140117  RH  030%=      5-min Rain = 0
KTAS 131809Z 15003KT 32/12 A2998 RMK A01 T03170116  RH  029%=      5-min Rain = 0
KTAS 131810Z 13004KT 32/11 A2998 RMK A01 T03180114  RH  029%=      5-min Rain = 0
KTAS 131811Z 22003KT 32/12 A2998 RMK A01 T03170115  RH  029%=      5-min Rain = 0
KTAS 131812Z 21008G13KT 32/12 A2998 RMK A01 T03150118  RH  030%=      5-min Rain = 0
KTAS 131813Z 22004KT 32/11 A2998 RMK A01 T03170114  RH  029%=      5-min Rain = 0
KTAS 131814Z 17005KT 32/12 A2998 RMK A01 T03190117  RH  029%=      5-min Rain = 0
KTAS 131815Z 22008KT 32/12 A2998 RMK A01 T03200124  RH  030%=      5-min Rain = 0
KTAS 131816Z 21007KT 32/13 A2998 RMK A01 T03170129  RH  032%=      5-min Rain = 0
KTAS 131817Z 16009KT 32/13 A2998 RMK A01 T03210128  RH  031%=      5-min Rain = 0
KTAS 131818Z 17007KT 32/13 A2998 RMK A01 T03220128  RH  031%=      5-min Rain = 0
KTAS 131819Z 17006KT 32/13 A2998 RMK A01 T03230128  RH  031%=      5-min Rain = 0
KTAS 131820Z 18007KT 32/13 A2998 RMK A01 T03210129  RH  031%=      5-min Rain = 0
KTAS 131821Z 20006KT 32/13 A2997 RMK A01 T03170128  RH  031%=      5-min Rain = 0
KTAS 131822Z 21009KT 32/13 A2997 RMK A01 T03150126  RH  031%=      5-min Rain = 0
KTAS 131823Z 21010KT 31/13 A2997 RMK A01 T03140125  RH  031%=      5-min Rain = 0
KTAS 131824Z 22011KT 32/13 A2997 RMK A01 T03190126  RH  031%=      5-min Rain = 0
KTAS 131825Z 21009KT 32/13 A2997 RMK A01 T03240126  RH  030%=      5-min Rain = 0
KTAS 131826Z 23007KT 32/12 A2997 RMK A01 T03220122  RH  030%=      5-min Rain = 0
KTAS 131827Z 22006KT 32/12 A2997 RMK A01 T03160123  RH  031%=      5-min Rain = 0
KTAS 131828Z 22006KT 32/12 A2997 RMK A01 T03160122  RH  031%=      5-min Rain = 0
KTAS 131829Z 21006KT 32/12 A2997 RMK A01 T03160117  RH  030%=      5-min Rain = 0
KTAS 131830Z 19009KT 32/12 A2997 RMK A01 T03180120  RH  030%=      5-min Rain = 0
KTAS 131831Z 17006KT 32/12 A2997 RMK A01 T03210117  RH  029%=      5-min Rain = 0
KTAS 131832Z 22007KT 32/12 A2997 RMK A01 T03220117  RH  029%=      5-min Rain = 0
KTAS 131833Z 21006KT 32/12 A2997 RMK A01 T03240119  RH  029%=      5-min Rain = 0
KTAS 131834Z 21009KT 33/12 A2997 RMK A01 T03250119  RH  028%=      5-min Rain = 0
KTAS 131835Z 20009KT 32/11 A2997 RMK A01 T03240113  RH  027%=      5-min Rain = 0
KTAS 131836Z 19006KT 32/12 A2997 RMK A01 T03200116  RH  029%=      5-min Rain = 0
KTAS 131837Z 21006KT 32/12 A2997 RMK A01 T03210118  RH  029%=      5-min Rain = 0
KTAS 131838Z 19007KT 32/12 A2997 RMK A01 T03240117  RH  028%=      5-min Rain = 0
KTAS 131839Z 18005KT 32/12 A2997 RMK A01 T03230118  RH  029%=      5-min Rain = 0
KTAS 131840Z 25003KT 32/11 A2997 RMK A01 T03240110  RH  027%=      5-min Rain = 0
KTAS 131841Z 24007KT 32/09 A2997 RMK A01 T03240086  RH  023%=      5-min Rain = 0
KTAS 131842Z 23005KT 32/09 A2997 RMK A01 T03230087  RH  023%=      5-min Rain = 0
KTAS 131843Z 26007KT 32/08 A2997 RMK A01 T03220084  RH  023%=      5-min Rain = 0
KTAS 131844Z 27006KT 32/08 A2997 RMK A01 T03230083  RH  023%=      5-min Rain = 0
KTAS 131845Z 23007KT 33/10 A2997 RMK A01 T03250097  RH  025%=      5-min Rain = 0
KTAS 131846Z 21007KT 32/10 A2996 RMK A01 T03230102  RH  026%=      5-min Rain = 0
KTAS 131847Z 20003KT 32/11 A2996 RMK A01 T03210109  RH  027%=      5-min Rain = 0
KTAS 131848Z 15004KT 32/11 A2996 RMK A01 T03200110  RH  028%=      5-min Rain = 0
KTAS 131849Z 22009KT 32/11 A2996 RMK A01 T03230106  RH  026%=      5-min Rain = 0
KTAS 131850Z 20008KT 33/11 A2996 RMK A01 T03260111  RH  027%=      5-min Rain = 0
KTAS 131851Z 19006KT 32/11 A2996 RMK A01 T03220112  RH  028%=      5-min Rain = 0
KTAS 131852Z 19007KT 32/11 A2996 RMK A01 T03220111  RH  028%=      5-min Rain = 0
KTAS 131853Z 20004KT 32/11 A2996 RMK A01 T03230111  RH  027%=      5-min Rain = 0
KTAS 131854Z 19002G7KT 32/11 A2996 RMK A01 T03210108  RH  027%=      5-min Rain = 0
KTAS 131855Z 19009KT 32/11 A2996 RMK A01 T03230108  RH  027%=      5-min Rain = 0
KTAS 131856Z 22003KT 32/11 A2996 RMK A01 T03240107  RH  026%=      5-min Rain = 0
KTAS 131857Z 20004KT 32/10 A2996 RMK A01 T03230104  RH  026%=      5-min Rain = 0
KTAS 131858Z 18006KT 32/10 A2996 RMK A01 T03210100  RH  026%=      5-min Rain = 0
KTAS 131859Z 19008KT 33/10 A2996 RMK A01 T03250101  RH  025%=      5-min Rain = 0
KTAS 131900Z 16007KT 33/10 A2996 RMK A01 T03250098  RH  025%=      5-min Rain = 0
KTAS 131901Z 15007KT 32/10 A2996 RMK A01 T03230098  RH  025%=      5-min Rain = 0
KTAS 131902Z 18005KT 33/10 A2996 RMK A01 T03250101  RH  025%=      5-min Rain = 0
KTAS 131903Z 19006KT 33/10 A2996 RMK A01 T03310099  RH  024%=      5-min Rain = 0
KTAS 131904Z 20004KT 33/10 A2996 RMK A01 T03320098  RH  024%=      5-min Rain = 0
KTAS 131905Z 23005KT 33/10 A2996 RMK A01 T03320097  RH  024%=      5-min Rain = 0
KTAS 131906Z 22005KT 34/09 A2996 RMK A01 T03370093  RH  022%=      5-min Rain = 0
KTAS 131907Z 19007KT 34/10 A2996 RMK A01 T03380098  RH  023%=      5-min Rain = 0
KTAS 131908Z 17008KT 34/10 A2996 RMK A01 T03370097  RH  023%=      5-min Rain = 0
KTAS 131909Z 15007KT 33/09 A2996 RMK A01 T03330094  RH  023%=      5-min Rain = 0
KTAS 131910Z 14007KT 33/09 A2995 RMK A01 T03310091  RH  023%=      5-min Rain = 0
KTAS 131911Z 12007KT 33/09 A2995 RMK A01 T03310092  RH  023%=      5-min Rain = 0
KTAS 131912Z 12009KT 33/09 A2995 RMK A01 T03310094  RH  023%=      5-min Rain = 0
KTAS 131913Z 11006KT 33/09 A2995 RMK A01 T03280094  RH  024%=      5-min Rain = 0
KTAS 131914Z 13004KT 32/10 A2995 RMK A01 T03240096  RH  025%=      5-min Rain = 0
KTAS 131915Z 17009KT 33/10 A2995 RMK A01 T03250099  RH  025%=      5-min Rain = 0
KTAS 131916Z 19006KT 33/10 A2995 RMK A01 T03270100  RH  025%=      5-min Rain = 0
KTAS 131917Z 16012KT 33/10 A2995 RMK A01 T03300097  RH  024%=      5-min Rain = 0
KTAS 131918Z 15009KT 33/10 A2995 RMK A01 T03280096  RH  024%=      5-min Rain = 0
KTAS 131919Z 16011KT 33/10 A2995 RMK A01 T03280096  RH  024%=      5-min Rain = 0
KTAS 131920Z 18008KT 33/10 A2995 RMK A01 T03290095  RH  024%=      5-min Rain = 0
KTAS 131921Z 21005KT 33/09 A2995 RMK A01 T03260092  RH  024%=      5-min Rain = 0
KTAS 131922Z 21004KT 32/09 A2995 RMK A01 T03230094  RH  024%=      5-min Rain = 0
KTAS 131923Z 23002KT 32/09 A2995 RMK A01 T03230094  RH  024%=      5-min Rain = 0
KTAS 131924Z 15001KT 32/09 A2995 RMK A01 T03230094  RH  024%=      5-min Rain = 0
KTAS 131925Z 18006KT 33/09 A2995 RMK A01 T03260092  RH  024%=      5-min Rain = 0
KTAS 131926Z 18004KT 33/09 A2995 RMK A01 T03280087  RH  023%=      5-min Rain = 0
KTAS 131927Z 17010KT 33/09 A2995 RMK A01 T03270085  RH  022%=      5-min Rain = 0
KTAS 131928Z 17010KT 33/09 A2995 RMK A01 T03300085  RH  022%=      5-min Rain = 0
KTAS 131929Z 15006KT 33/08 A2995 RMK A01 T03320080  RH  021%=      5-min Rain = 0
KTAS 131930Z 12004KT 33/08 A2995 RMK A01 T03300076  RH  021%=      5-min Rain = 0
KTAS 131931Z 17007KT 33/08 A2995 RMK A01 T03300079  RH  021%=      5-min Rain = 0
KTAS 131932Z 16007KT 33/08 A2995 RMK A01 T03310078  RH  021%=      5-min Rain = 0
KTAS 131933Z 17007KT 33/08 A2995 RMK A01 T03340075  RH  020%=      5-min Rain = 0
KTAS 131934Z 16006KT 33/07 A2995 RMK A01 T03330074  RH  020%=      5-min Rain = 0
KTAS 131935Z 17003KT 33/07 A2995 RMK A01 T03310070  RH  020%=      5-min Rain = 0
KTAS 131936Z 14003KT 33/07 A2995 RMK A01 T03290069  RH  020%=      5-min Rain = 0
KTAS 131937Z 11002KT 33/08 A2995 RMK A01 T03270077  RH  021%=      5-min Rain = 0
KTAS 131938Z 15006KT 33/08 A2995 RMK A01 T03290078  RH  021%=      5-min Rain = 0
KTAS 131939Z 17008KT 33/08 A2995 RMK A01 T03330081  RH  021%=      5-min Rain = 0
KTAS 131940Z 14008KT 34/08 A2995 RMK A01 T03370083  RH  021%=      5-min Rain = 0
KTAS 131941Z 15007KT 34/08 A2995 RMK A01 T03370081  RH  021%=      5-min Rain = 0
KTAS 131942Z 17007KT 34/08 A2995 RMK A01 T03390081  RH  020%=      5-min Rain = 0
KTAS 131943Z 18009KT 34/08 A2995 RMK A01 T03400081  RH  020%=      5-min Rain = 0
KTAS 131944Z 17009KT 34/08 A2995 RMK A01 T03420083  RH  020%=      5-min Rain = 0
KTAS 131945Z 17008KT 34/08 A2995 RMK A01 T03420080  RH  020%=      5-min Rain = 0
KTAS 131946Z 19008KT 34/08 A2995 RMK A01 T03400082  RH  020%=      5-min Rain = 0
KTAS 131947Z 18007KT 34/08 A2995 RMK A01 T03380081  RH  020%=      5-min Rain = 0
KTAS 131948Z 19005KT 34/07 A2995 RMK A01 T03360074  RH  020%=      5-min Rain = 0
KTAS 131949Z 14004KT 33/08 A2995 RMK A01 T03330075  RH  020%=      5-min Rain = 0
KTAS 131950Z 12004KT 33/07 A2995 RMK A01 T03340074  RH  020%=      5-min Rain = 0
KTAS 131951Z 12003KT 33/07 A2995 RMK A01 T03320074  RH  020%=      5-min Rain = 0
KTAS 131952Z 20005G10KT 33/07 A2995 RMK A01 T03300074  RH  020%=      5-min Rain = 0
KTAS 131953Z 18005G10KT 33/08 A2995 RMK A01 T03320075  RH  020%=      5-min Rain = 0
KTAS 131954Z 19008KT 33/06 A2995 RMK A01 T03330055  RH  018%=      5-min Rain = 0
KTAS 131955Z 19012KT 33/04 A2995 RMK A01 T03340043  RH  016%=      5-min Rain = 0
KTAS 131956Z 20011KT 34/04 A2995 RMK A01 T03370036  RH  015%=      5-min Rain = 0
KTAS 131957Z 22008KT 34/03 A2995 RMK A01 T03360029  RH  014%=      5-min Rain = 0
KTAS 131958Z 21008KT 33/03 A2995 RMK A01 T03330028  RH  015%=      5-min Rain = 0
KTAS 131959Z 20008KT 33/02 A2995 RMK A01 T03330022  RH  014%=      5-min Rain = 0
KTAS 132000Z 19004G9KT 33/02 A2995 RMK A01 T03330017  RH  014%=      5-min Rain = 0
KTAS 132001Z 19003KT 33/02 A2995 RMK A01 T03330024  RH  014%=      5-min Rain = 0
KTAS 132002Z 19010KT 34/04 A2995 RMK A01 T03350036  RH  015%=      5-min Rain = 0
KTAS 132003Z 18009KT 34/04 A2995 RMK A01 T03390040  RH  015%=      5-min Rain = 0
KTAS 132004Z 18006KT 34/04 A2994 RMK A01 T03420040  RH  015%=      5-min Rain = 0
KTAS 132005Z 11002KT 34/04 A2994 RMK A01 T03390037  RH  015%=      5-min Rain = 0
KTAS 132006Z 03002KT 34/04 A2994 RMK A01 T03350044  RH  016%=      5-min Rain = 0
KTAS 132007Z 36002KT 33/05 A2994 RMK A01 T03330053  RH  017%=      5-min Rain = 0
KTAS 132008Z 15006KT 34/06 A2994 RMK A01 T03350057  RH  018%=      5-min Rain = 0
KTAS 132009Z 15010KT 34/07 A2994 RMK A01 T03380072  RH  019%=      5-min Rain = 0
KTAS 132010Z 16008KT 34/07 A2994 RMK A01 T03410074  RH  019%=      5-min Rain = 0
KTAS 132011Z 17006KT 34/07 A2994 RMK A01 T03430073  RH  019%=      5-min Rain = 0
KTAS 132012Z 16006KT 35/08 A2994 RMK A01 T03450075  RH  019%=      5-min Rain = 0
KTAS 132013Z 14006KT 35/08 A2994 RMK A01 T03450076  RH  019%=      5-min Rain = 0
KTAS 132014Z 16010KT 35/08 A2994 RMK A01 T03470079  RH  019%=      5-min Rain = 0
KTAS 132015Z 17013KT 35/07 A2994 RMK A01 T03520073  RH  018%=      5-min Rain = 0
KTAS 132016Z 18009KT 35/07 A2994 RMK A01 T03480071  RH  018%=      5-min Rain = 0
KTAS 132017Z 17009G14KT 34/07 A2993 RMK A01 T03430074  RH  019%=      5-min Rain = 0
KTAS 132018Z 15012KT 35/07 A2994 RMK A01 T03460071  RH  018%=      5-min Rain = 0
KTAS 132019Z 17011KT 35/06 A2994 RMK A01 T03490062  RH  017%=      5-min Rain = 0
KTAS 132020Z 16012G17KT 35/05 A2994 RMK A01 T03450053  RH  016%=      5-min Rain = 0
KTAS 132021Z 16009KT 34/05 A2994 RMK A01 T03420052  RH  016%=      5-min Rain = 0
KTAS 132022Z 18009KT 35/05 A2994 RMK A01 T03470049  RH  016%=      5-min Rain = 0
KTAS 132023Z 18007KT 35/05 A2993 RMK A01 T03480045  RH  015%=      5-min Rain = 0
KTAS 132024Z 15008KT 35/03 A2993 RMK A01 T03480029  RH  014%=      5-min Rain = 0
KTAS 132025Z 17009G15KT 35/03 A2993 RMK A01 T03460030  RH  014%=      5-min Rain = 0
KTAS 132026Z 19012KT 35/03 A2993 RMK A01 T03490034  RH  014%=      5-min Rain = 0
KTAS 132027Z 18009KT 35/04 A2993 RMK A01 T03470036  RH  014%=      5-min Rain = 0
KTAS 132028Z 17007KT 35/04 A2993 RMK A01 T03450039  RH  015%=      5-min Rain = 0
KTAS 132029Z 17008KT 34/04 A2993 RMK A01 T03430041  RH  015%=      5-min Rain = 0
KTAS 132030Z 16006KT 35/04 A2993 RMK A01 T03450038  RH  015%=      5-min Rain = 0
KTAS 132031Z 18011KT 35/05 A2993 RMK A01 T03460046  RH  015%=      5-min Rain = 0
KTAS 132032Z 19012KT 35/05 A2993 RMK A01 T03480048  RH  015%=      5-min Rain = 0
KTAS 132033Z 18009KT 34/05 A2993 RMK A01 T03440053  RH  016%=      5-min Rain = 0
KTAS 132034Z 22006KT 34/06 A2993 RMK A01 T03420058  RH  017%=      5-min Rain = 0
KTAS 132035Z 22005KT 35/06 A2993 RMK A01 T03450062  RH  017%=      5-min Rain = 0
KTAS 132036Z 20007KT 35/07 A2993 RMK A01 T03460065  RH  018%=      5-min Rain = 0
KTAS 132037Z 23010KT 34/06 A2993 RMK A01 T03430063  RH  018%=      5-min Rain = 0
KTAS 132038Z 23009KT 34/06 A2993 RMK A01 T03390059  RH  018%=      5-min Rain = 0
KTAS 132039Z 22008KT 34/06 A2993 RMK A01 T03350061  RH  018%=      5-min Rain = 0
KTAS 132040Z 22008KT 33/06 A2992 RMK A01 T03340063  RH  019%=      5-min Rain = 0
KTAS 132041Z 22007KT 33/06 A2992 RMK A01 T03330060  RH  018%=      5-min Rain = 0
KTAS 132042Z 22004KT 33/06 A2992 RMK A01 T03330059  RH  018%=      5-min Rain = 0
KTAS 132043Z 21002KT 33/06 A2992 RMK A01 T03320058  RH  018%=      5-min Rain = 0
KTAS 132044Z 18004KT 33/06 A2992 RMK A01 T03320062  RH  019%=      5-min Rain = 0
KTAS 132045Z 20004KT 33/07 A2992 RMK A01 T03330065  RH  019%=      5-min Rain = 0
KTAS 132046Z 20004KT 33/07 A2992 RMK A01 T03330065  RH  019%=      5-min Rain = 0
KTAS 132047Z 20005KT 33/07 A2992 RMK A01 T03300066  RH  019%=      5-min Rain = 0
KTAS 132048Z 18002KT 33/07 A2992 RMK A01 T03270066  RH  020%=      5-min Rain = 0
KTAS 132049Z 16002KT 33/07 A2992 RMK A01 T03280066  RH  020%=      5-min Rain = 0
KTAS 132050Z 15004KT 33/07 A2992 RMK A01 T03290068  RH  020%=      5-min Rain = 0
KTAS 132051Z 16005KT 33/07 A2992 RMK A01 T03320068  RH  019%=      5-min Rain = 0
KTAS 132052Z 16008KT 34/07 A2992 RMK A01 T03350069  RH  019%=      5-min Rain = 0
KTAS 132053Z 18009KT 34/07 A2992 RMK A01 T03360066  RH  019%=      5-min Rain = 0
KTAS 132054Z 18010KT 34/06 A2992 RMK A01 T03360064  RH  018%=      5-min Rain = 0
KTAS 132055Z 18014G19KT 34/07 A2992 RMK A01 T03360065  RH  019%=      5-min Rain = 0
KTAS 132056Z 16010KT 33/06 A2992 RMK A01 T03320063  RH  019%=      5-min Rain = 0
KTAS 132057Z 18011KT 33/07 A2992 RMK A01 T03310065  RH  019%=      5-min Rain = 0
KTAS 132058Z 17010KT 33/07 A2992 RMK A01 T03320068  RH  019%=      5-min Rain = 0
KTAS 132059Z 16010KT 34/07 A2992 RMK A01 T03350069  RH  019%=      5-min Rain = 0
KTAS 132100Z 15008G13KT 34/07 A2991 RMK A01 T03390069  RH  019%=      5-min Rain = 0
KTAS 132101Z 17009KT 34/08 A2991 RMK A01 T03420075  RH  019%=      5-min Rain = 0
KTAS 132102Z 18011KT 35/08 A2991 RMK A01 T03460078  RH  019%=      5-min Rain = 0
KTAS 132103Z 19007KT 35/08 A2991 RMK A01 T03480079  RH  019%=      5-min Rain = 0
KTAS 132104Z 18011KT 35/08 A2991 RMK A01 T03490079  RH  019%=      5-min Rain = 0
KTAS 132105Z 18011KT 35/08 A2991 RMK A01 T03500078  RH  019%=      5-min Rain = 0
KTAS 132106Z 18006KT 35/08 A2991 RMK A01 T03500079  RH  019%=      5-min Rain = 0
KTAS 132107Z 19008KT 35/08 A2991 RMK A01 T03530076  RH  018%=      5-min Rain = 0
KTAS 132108Z 17007KT 35/08 A2991 RMK A01 T03480075  RH  019%=      5-min Rain = 0
KTAS 132109Z 17006KT 34/08 A2991 RMK A01 T03440077  RH  019%=      5-min Rain = 0
KTAS 132110Z 17007KT 34/08 A2991 RMK A01 T03430078  RH  019%=      5-min Rain = 0
KTAS 132111Z 14005KT 34/08 A2991 RMK A01 T03420077  RH  020%=      5-min Rain = 0
KTAS 132112Z 17003KT 34/08 A2991 RMK A01 T03430079  RH  020%=      5-min Rain = 0
KTAS 132113Z 19004KT 34/08 A2991 RMK A01 T03420079  RH  020%=      5-min Rain = 0
KTAS 132114Z 21007KT 34/08 A299 RMK A01 T03400079  RH  020%=      5-min Rain = 0
KTAS 132115Z 22006KT 34/08 A299 RMK A01 T03380079  RH  020%=      5-min Rain = 0
KTAS 132116Z 22004KT 34/08 A299 RMK A01 T03370079  RH  020%=      5-min Rain = 0
KTAS 132117Z 20003KT 34/08 A299 RMK A01 T03390078  RH  020%=      5-min Rain = 0
KTAS 132118Z 21003KT 34/08 A299 RMK A01 T03400079  RH  020%=      5-min Rain = 0
KTAS 132119Z 19005KT 34/08 A299 RMK A01 T03380079  RH  020%=      5-min Rain = 0
KTAS 132120Z 18009KT 34/08 A299 RMK A01 T03380076  RH  020%=      5-min Rain = 0
KTAS 132121Z 18009KT 34/08 A299 RMK A01 T03410075  RH  019%=      5-min Rain = 0
KTAS 132122Z 18010KT 34/07 A299 RMK A01 T03420072  RH  019%=      5-min Rain = 0
KTAS 132123Z 19009G15KT 34/07 A299 RMK A01 T03400072  RH  019%=      5-min Rain = 0
KTAS 132124Z 18015KT 34/08 A299 RMK A01 T03400075  RH  020%=      5-min Rain = 0
KTAS 132125Z 18012KT 34/07 A299 RMK A01 T03390074  RH  019%=      5-min Rain = 0
KTAS 132126Z 18013KT 34/07 A299 RMK A01 T03390074  RH  019%=      5-min Rain = 0
KTAS 132127Z 17011KT 34/07 A299 RMK A01 T03390074  RH  019%=      5-min Rain = 0
KTAS 132128Z 16009KT 34/08 A2989 RMK A01 T03400075  RH  019%=      5-min Rain = 0
KTAS 132129Z 17009KT 34/08 A2989 RMK A01 T03430075  RH  019%=      5-min Rain = 0
KTAS 132130Z 15009KT 34/08 A2989 RMK A01 T03440075  RH  019%=      5-min Rain = 0
KTAS 132131Z 16008KT 34/08 A2989 RMK A01 T03420075  RH  019%=      5-min Rain = 0
KTAS 132132Z 17006KT 34/07 A2989 RMK A01 T03410074  RH  019%=      5-min Rain = 0
KTAS 132133Z 16007KT 34/08 A2989 RMK A01 T03410075  RH  019%=      5-min Rain = 0
KTAS 132134Z 17007KT 34/07 A2989 RMK A01 T03410074  RH  019%=      5-min Rain = 0
KTAS 132135Z 16005KT 34/07 A2989 RMK A01 T03400073  RH  019%=      5-min Rain = 0
KTAS 132136Z 19007KT 34/08 A2989 RMK A01 T03400075  RH  019%=      5-min Rain = 0
KTAS 132137Z 19008KT 34/07 A2989 RMK A01 T03400073  RH  019%=      5-min Rain = 0
KTAS 132138Z 18004KT 34/07 A2989 RMK A01 T03380071  RH  019%=      5-min Rain = 0
KTAS 132139Z 16002KT 34/07 A2989 RMK A01 T03360072  RH  019%=      5-min Rain = 0
KTAS 132140Z 16005KT 34/07 A2989 RMK A01 T03390073  RH  019%=      5-min Rain = 0
KTAS 132141Z 17004KT 34/07 A2989 RMK A01 T03410072  RH  019%=      5-min Rain = 0
KTAS 132142Z 15005KT 34/07 A2989 RMK A01 T03430074  RH  019%=      5-min Rain = 0
KTAS 132143Z 15007KT 35/07 A2989 RMK A01 T03450072  RH  019%=      5-min Rain = 0
KTAS 132144Z 15005KT 35/07 A2989 RMK A01 T03470070  RH  018%=      5-min Rain = 0
KTAS 132145Z 08001KT 35/07 A2988 RMK A01 T03490067  RH  018%=      5-min Rain = 0
KTAS 132146Z 13000KT 35/07 A2988 RMK A01 T03460066  RH  018%=      5-min Rain = 0
KTAS 132147Z 14005KT 35/07 A2988 RMK A01 T03470069  RH  018%=      5-min Rain = 0
KTAS 132148Z 16005G11KT 35/07 A2988 RMK A01 T03470066  RH  018%=      5-min Rain = 0
KTAS 132149Z 15011KT 35/07 A2988 RMK A01 T03450067  RH  018%=      5-min Rain = 0
KTAS 132150Z 16011KT 35/07 A2988 RMK A01 T03470068  RH  018%=      5-min Rain = 0
KTAS 132151Z 18011KT 35/07 A2988 RMK A01 T03470067  RH  018%=      5-min Rain = 0
KTAS 132152Z 19007KT 34/07 A2988 RMK A01 T03440069  RH  018%=      5-min Rain = 0
KTAS 132153Z 21006KT 34/07 A2988 RMK A01 T03440072  RH  019%=      5-min Rain = 0
KTAS 132154Z 23009KT 35/07 A2988 RMK A01 T03480071  RH  018%=      5-min Rain = 0
KTAS 132155Z 24008KT 35/07 A2988 RMK A01 T03490071  RH  018%=      5-min Rain = 0
KTAS 132156Z 24004KT 35/07 A2988 RMK A01 T03460071  RH  018%=      5-min Rain = 0
KTAS 132157Z 17002KT 35/07 A2988 RMK A01 T03450070  RH  018%=      5-min Rain = 0
KTAS 132158Z 13004KT 34/07 A2988 RMK A01 T03440069  RH  018%=      5-min Rain = 0
KTAS 132159Z 12007KT 35/07 A2988 RMK A01 T03450069  RH  018%=      5-min Rain = 0
KTAS 132200Z 13005KT 35/07 A2988 RMK A01 T03460071  RH  018%=      5-min Rain = 0
KTAS 132201Z 17009G16KT 35/07 A2988 RMK A01 T03510072  RH  018%=      5-min Rain = 0
KTAS 132202Z 18014KT 36/07 A2987 RMK A01 T03560071  RH  017%=      5-min Rain = 0
KTAS 132203Z 18013KT 36/07 A2987 RMK A01 T03570072  RH  017%=      5-min Rain = 0
KTAS 132204Z 18012KT 36/07 A2988 RMK A01 T03550073  RH  018%=      5-min Rain = 0
KTAS 132205Z 16013KT 35/07 A2987 RMK A01 T03500072  RH  018%=      5-min Rain = 0
KTAS 132206Z 18012KT 35/07 A2987 RMK A01 T03450071  RH  018%=      5-min Rain = 0
KTAS 132207Z 17010KT 34/07 A2987 RMK A01 T03420070  RH  019%=      5-min Rain = 0
KTAS 132208Z 17009KT 34/07 A2987 RMK A01 T03400071  RH  019%=      5-min Rain = 0
KTAS 132209Z 17010KT 34/07 A2987 RMK A01 T03410072  RH  019%=      5-min Rain = 0
KTAS 132210Z 15010KT 34/07 A2987 RMK A01 T03410071  RH  019%=      5-min Rain = 0
KTAS 132211Z 16013KT 34/07 A2987 RMK A01 T03400071  RH  019%=      5-min Rain = 0
KTAS 132212Z 15013KT 34/07 A2987 RMK A01 T03390071  RH  019%=      5-min Rain = 0
KTAS 132213Z 16010KT 34/07 A2987 RMK A01 T03370070  RH  019%=      5-min Rain = 0
KTAS 132214Z 17006KT 34/07 A2987 RMK A01 T03350070  RH  019%=      5-min Rain = 0
KTAS 132215Z 18008KT 34/07 A2987 RMK A01 T03350071  RH  019%=      5-min Rain = 0
KTAS 132216Z 16005KT 33/07 A2987 RMK A01 T03340072  RH  020%=      5-min Rain = 0
KTAS 132217Z 17008KT 34/07 A2987 RMK A01 T03350072  RH  020%=      5-min Rain = 0
KTAS 132218Z 18010KT 34/07 A2987 RMK A01 T03360071  RH  019%=      5-min Rain = 0
KTAS 132219Z 17010KT 34/07 A2987 RMK A01 T03370071  RH  019%=      5-min Rain = 0
KTAS 132220Z 16010KT 34/07 A2987 RMK A01 T03380071  RH  019%=      5-min Rain = 0
KTAS 132221Z 17007KT 34/07 A2987 RMK A01 T03380071  RH  019%=      5-min Rain = 0
KTAS 132222Z 17007KT 34/07 A2987 RMK A01 T03380071  RH  019%=      5-min Rain = 0
KTAS 132223Z 17006KT 34/07 A2987 RMK A01 T03390071  RH  019%=      5-min Rain = 0
KTAS 132224Z 19005KT 34/07 A2987 RMK A01 T03390071  RH  019%=      5-min Rain = 0
KTAS 132225Z 16006G11KT 34/07 A2987 RMK A01 T03390073  RH  019%=      5-min Rain = 0
KTAS 132226Z 16010KT 34/07 A2987 RMK A01 T03430074  RH  019%=      5-min Rain = 0
KTAS 132227Z 17009KT 35/07 A2987 RMK A01 T03450072  RH  019%=      5-min Rain = 0
KTAS 132228Z 15006KT 34/07 A2987 RMK A01 T03440074  RH  019%=      5-min Rain = 0
KTAS 132229Z 15009KT 35/08 A2987 RMK A01 T03460075  RH  019%=      5-min Rain = 0
KTAS 132230Z 14011KT 35/07 A2987 RMK A01 T03470073  RH  019%=      5-min Rain = 0
KTAS 132231Z 17012G17KT 35/08 A2987 RMK A01 T03470076  RH  019%=      5-min Rain = 0
KTAS 132232Z 17014KT 35/07 A2987 RMK A01 T03490074  RH  018%=      5-min Rain = 0
KTAS 132233Z 16013KT 35/08 A2987 RMK A01 T03490075  RH  019%=      5-min Rain = 0
KTAS 132234Z 16014KT 35/07 A2987 RMK A01 T03510074  RH  018%=      5-min Rain = 0
KTAS 132235Z 16012KT 35/07 A2987 RMK A01 T03490074  RH  018%=      5-min Rain = 0
KTAS 132236Z 15010KT 35/08 A2987 RMK A01 T03480075  RH  019%=      5-min Rain = 0
KTAS 132237Z 18009KT 35/08 A2987 RMK A01 T03510075  RH  018%=      5-min Rain = 0
KTAS 132238Z 20007KT 35/07 A2987 RMK A01 T03520071  RH  018%=      5-min Rain = 0
KTAS 132239Z 15003KT 35/07 A2987 RMK A01 T03500068  RH  018%=      5-min Rain = 0
KTAS 132240Z 14006KT 35/07 A2987 RMK A01 T03480070  RH  018%=      5-min Rain = 0
KTAS 132241Z 15007KT 35/07 A2987 RMK A01 T03480069  RH  018%=      5-min Rain = 0
KTAS 132242Z 17007KT 35/07 A2987 RMK A01 T03450067  RH  018%=      5-min Rain = 0
KTAS 132243Z 15006KT 34/06 A2987 RMK A01 T03430063  RH  018%=      5-min Rain = 0
KTAS 132244Z 16008KT 34/07 A2987 RMK A01 T03420069  RH  018%=      5-min Rain = 0
KTAS 132245Z 15009KT 34/07 A2987 RMK A01 T03420071  RH  019%=      5-min Rain = 0
KTAS 132246Z 16010KT 34/07 A2987 RMK A01 T03440072  RH  019%=      5-min Rain = 0
KTAS 132247Z 17014KT 35/07 A2987 RMK A01 T03480072  RH  018%=      5-min Rain = 0
KTAS 132248Z 18013KT 35/07 A2987 RMK A01 T03510072  RH  018%=      5-min Rain = 0
KTAS 132249Z 16011KT 35/07 A2987 RMK A01 T03510072  RH  018%=      5-min Rain = 0
KTAS 132250Z 17013KT 35/07 A2987 RMK A01 T03500067  RH  017%=      5-min Rain = 0
KTAS 132251Z 17012KT 35/07 A2987 RMK A01 T03510066  RH  017%=      5-min Rain = 0
KTAS 132252Z 18011KT 35/06 A2987 RMK A01 T03530063  RH  017%=      5-min Rain = 0
KTAS 132253Z 17008KT 35/07 A2987 RMK A01 T03530069  RH  017%=      5-min Rain = 0
KTAS 132254Z 16008KT 36/07 A2987 RMK A01 T03550074  RH  018%=      5-min Rain = 0
KTAS 132255Z 17008KT 36/07 A2986 RMK A01 T03550074  RH  018%=      5-min Rain = 0
KTAS 132256Z 19010KT 35/07 A2986 RMK A01 T03530066  RH  017%=      5-min Rain = 0
KTAS 132257Z 20012G17KT 35/06 A2986 RMK A01 T03490062  RH  017%=      5-min Rain = 0
KTAS 132258Z 18015KT 35/06 A2987 RMK A01 T03490059  RH  017%=      5-min Rain = 0
KTAS 132259Z 19013G18KT 35/06 A2987 RMK A01 T03490059  RH  017%=      5-min Rain = 0
KTAS 132300Z 20011KT 35/06 A2987 RMK A01 T03480060  RH  017%=      5-min Rain = 0
KTAS 132301Z 19008KT 35/06 A2987 RMK A01 T03480060  RH  017%=      5-min Rain = 0
KTAS 132302Z 18012KT 35/07 A2987 RMK A01 T03500068  RH  018%=      5-min Rain = 0
KTAS 132303Z 17013KT 35/07 A2986 RMK A01 T03470072  RH  018%=      5-min Rain = 0
KTAS 132304Z 16015KT 34/07 A2986 RMK A01 T03440072  RH  019%=      5-min Rain = 0
KTAS 132305Z 15012KT 34/07 A2987 RMK A01 T03420072  RH  019%=      5-min Rain = 0
KTAS 132306Z 16013G19KT 34/07 A2986 RMK A01 T03410072  RH  019%=      5-min Rain = 0
KTAS 132307Z 17015KT 34/07 A2986 RMK A01 T03420071  RH  019%=      5-min Rain = 0
KTAS 132308Z 17012KT 34/07 A2986 RMK A01 T03420070  RH  019%=      5-min Rain = 0
KTAS 132309Z 15014KT 34/07 A2986 RMK A01 T03440071  RH  019%=      5-min Rain = 0
KTAS 132310Z 16016G21KT 35/07 A2986 RMK A01 T03460068  RH  018%=      5-min Rain = 0
KTAS 132311Z 15015KT 35/07 A2986 RMK A01 T03450065  RH  018%=      5-min Rain = 0
KTAS 132312Z 17016KT 35/07 A2986 RMK A01 T03450068  RH  018%=      5-min Rain = 0
KTAS 132313Z 17014KT 35/07 A2986 RMK A01 T03450067  RH  018%=      5-min Rain = 0
KTAS 132314Z 16013KT 34/07 A2986 RMK A01 T03430065  RH  018%=      5-min Rain = 0
KTAS 132315Z 16013KT 34/06 A2986 RMK A01 T03440064  RH  018%=      5-min Rain = 0
KTAS 132316Z 17015KT 35/07 A2986 RMK A01 T03460065  RH  018%=      5-min Rain = 0
KTAS 132317Z 17014KT 35/07 A2986 RMK A01 T03460066  RH  018%=      5-min Rain = 0
KTAS 132318Z 17013KT 35/07 A2986 RMK A01 T03470066  RH  018%=      5-min Rain = 0
KTAS 132319Z 18012KT 34/07 A2986 RMK A01 T03440065  RH  018%=      5-min Rain = 0
KTAS 132320Z 18009KT 34/07 A2986 RMK A01 T03430065  RH  018%=      5-min Rain = 0
KTAS 132321Z 18007KT 34/07 A2986 RMK A01 T03430067  RH  018%=      5-min Rain = 0
KTAS 132322Z 18006KT 34/07 A2986 RMK A01 T03420067  RH  018%=      5-min Rain = 0
KTAS 132323Z 20006KT 34/07 A2986 RMK A01 T03410068  RH  019%=      5-min Rain = 0
KTAS 132324Z 19008KT 34/07 A2986 RMK A01 T03410069  RH  019%=      5-min Rain = 0
KTAS 132325Z 19011KT 34/07 A2986 RMK A01 T03400068  RH  018%=      5-min Rain = 0
KTAS 132326Z 19013KT 34/06 A2986 RMK A01 T03400064  RH  018%=      5-min Rain = 0
KTAS 132327Z 17013G18KT 34/06 A2986 RMK A01 T03400062  RH  018%=      5-min Rain = 0
KTAS 132328Z 17014KT 34/06 A2986 RMK A01 T03400061  RH  018%=      5-min Rain = 0
KTAS 132329Z 18012KT 34/06 A2986 RMK A01 T03410063  RH  018%=      5-min Rain = 0
KTAS 132330Z 17015KT 34/06 A2986 RMK A01 T03410063  RH  018%=      5-min Rain = 0
KTAS 132331Z 16014KT 34/06 A2986 RMK A01 T03380061  RH  018%=      5-min Rain = 0
KTAS 132332Z 16011KT 34/06 A2986 RMK A01 T03360062  RH  018%=      5-min Rain = 0
KTAS 132333Z 15011KT 34/06 A2986 RMK A01 T03350064  RH  019%=      5-min Rain = 0
KTAS 132334Z 15016KT 34/06 A2986 RMK A01 T03350064  RH  019%=      5-min Rain = 0
KTAS 132335Z 15013KT 34/07 A2986 RMK A01 T03360065  RH  019%=      5-min Rain = 0
KTAS 132336Z 16013KT 34/07 A2986 RMK A01 T03360066  RH  019%=      5-min Rain = 0
KTAS 132337Z 17013KT 33/07 A2986 RMK A01 T03340066  RH  019%=      5-min Rain = 0
KTAS 132338Z 16013KT 33/07 A2986 RMK A01 T03330066  RH  019%=      5-min Rain = 0
KTAS 132339Z 17015KT 33/07 A2986 RMK A01 T03320065  RH  019%=      5-min Rain = 0
KTAS 132340Z 16015KT 33/07 A2986 RMK A01 T03320065  RH  019%=      5-min Rain = 0
KTAS 132341Z 16014KT 33/06 A2986 RMK A01 T03320064  RH  019%=      5-min Rain = 0
KTAS 132342Z 16013KT 33/07 A2986 RMK A01 T03320065  RH  019%=      5-min Rain = 0
KTAS 132343Z 16014KT 33/06 A2986 RMK A01 T03310063  RH  019%=      5-min Rain = 0
KTAS 132344Z 16013KT 33/06 A2986 RMK A01 T03300063  RH  019%=      5-min Rain = 0
KTAS 132345Z 16011KT 33/06 A2986 RMK A01 T03300064  RH  019%=      5-min Rain = 0
KTAS 132346Z 18011KT 33/06 A2986 RMK A01 T03300064  RH  019%=      5-min Rain = 0
KTAS 132347Z 17013KT 33/06 A2985 RMK A01 T03310062  RH  019%=      5-min Rain = 0
KTAS 132348Z 16015KT 33/06 A2985 RMK A01 T03300060  RH  019%=      5-min Rain = 0
KTAS 132349Z 16014KT 33/06 A2985 RMK A01 T03300060  RH  019%=      5-min Rain = 0
KTAS 132350Z 16011KT 33/06 A2985 RMK A01 T03290061  RH  019%=      5-min Rain = 0
KTAS 132351Z 17015KT 33/06 A2985 RMK A01 T03300060  RH  019%=      5-min Rain = 0
KTAS 132352Z 17014G19KT 33/06 A2985 RMK A01 T03300060  RH  019%=      5-min Rain = 0
KTAS 132353Z 16012KT 33/06 A2985 RMK A01 T03300062  RH  019%=      5-min Rain = 0
KTAS 132354Z 16013KT 33/07 A2985 RMK A01 T03310065  RH  019%=      5-min Rain = 0
KTAS 132355Z 17012G18KT 33/07 A2985 RMK A01 T03320066  RH  019%=      5-min Rain = 0
KTAS 132356Z 17016KT 33/07 A2985 RMK A01 T03320065  RH  019%=      5-min Rain = 0
KTAS 132357Z 17017KT 33/06 A2985 RMK A01 T03320064  RH  019%=      5-min Rain = 0
KTAS 132358Z 17014G20KT 33/06 A2985 RMK A01 T03310063  RH  019%=      5-min Rain = 0
KTAS 132359Z 18014KT 33/06 A2985 RMK A01 T03310062  RH  019%=      5-min Rain = 0
KTAS 140000Z 17013G18KT 33/06 A2985 RMK A01 T03320063  RH  019%=      5-min Rain = 0
KTAS 140001Z 17014KT 33/06 A2985 RMK A01 T03330063  RH  019%=      5-min Rain = 0
KTAS 140002Z 16015KT 33/07 A2985 RMK A01 T03340069  RH  019%=      5-min Rain = 0
KTAS 140003Z 17015KT 33/07 A2985 RMK A01 T03340074  RH  020%=      5-min Rain = 0
KTAS 140004Z 16015KT 33/08 A2985 RMK A01 T03330076  RH  020%=      5-min Rain = 0
KTAS 140005Z 15014G20KT 33/08 A2985 RMK A01 T03330078  RH  021%=      5-min Rain = 0
KTAS 140006Z 15016KT 33/08 A2985 RMK A01 T03330077  RH  020%=      5-min Rain = 0
KTAS 140007Z 17013KT 33/07 A2985 RMK A01 T03330073  RH  020%=      5-min Rain = 0
KTAS 140008Z 18014G20KT 33/06 A2985 RMK A01 T03340063  RH  019%=      5-min Rain = 0
KTAS 140009Z 17016KT 33/06 A2985 RMK A01 T03330058  RH  018%=      5-min Rain = 0
KTAS 140010Z 17014KT 33/06 A2985 RMK A01 T03330055  RH  018%=      5-min Rain = 0
KTAS 140011Z 17013KT 33/06 A2985 RMK A01 T03320057  RH  018%=      5-min Rain = 0
KTAS 140012Z 18015KT 33/06 A2985 RMK A01 T03320061  RH  019%=      5-min Rain = 0
KTAS 140013Z 18014KT 33/06 A2985 RMK A01 T03320061  RH  019%=      5-min Rain = 0
KTAS 140014Z 18015G20KT 33/06 A2985 RMK A01 T03320061  RH  018%=      5-min Rain = 0
KTAS 140015Z 19015KT 33/06 A2985 RMK A01 T03320064  RH  019%=      5-min Rain = 0
KTAS 140016Z 18016KT 33/07 A2985 RMK A01 T03310071  RH  020%=      5-min Rain = 0
KTAS 140017Z 18014KT 33/08 A2985 RMK A01 T03300075  RH  021%=      5-min Rain = 0
KTAS 140018Z 17014KT 33/08 A2985 RMK A01 T03290078  RH  021%=      5-min Rain = 0
KTAS 140019Z 17015KT 33/08 A2985 RMK A01 T03280078  RH  021%=      5-min Rain = 0
KTAS 140020Z 17013KT 33/08 A2985 RMK A01 T03280079  RH  021%=      5-min Rain = 0
KTAS 140021Z 17014KT 33/07 A2985 RMK A01 T03280074  RH  021%=      5-min Rain = 0
KTAS 140022Z 18014KT 33/07 A2985 RMK A01 T03280066  RH  020%=      5-min Rain = 0
KTAS 140023Z 18012KT 33/06 A2985 RMK A01 T03280064  RH  019%=      5-min Rain = 0
KTAS 140024Z 18014KT 33/06 A2985 RMK A01 T03280064  RH  019%=      5-min Rain = 0
KTAS 140025Z 19014KT 33/07 A2985 RMK A01 T03280067  RH  020%=      5-min Rain = 0
KTAS 140026Z 19013KT 33/07 A2985 RMK A01 T03270069  RH  020%=      5-min Rain = 0
KTAS 140027Z 18012KT 33/07 A2985 RMK A01 T03270071  RH  020%=      5-min Rain = 0
KTAS 140028Z 17012KT 33/07 A2985 RMK A01 T03270074  RH  021%=      5-min Rain = 0
KTAS 140029Z 17012KT 33/07 A2985 RMK A01 T03270074  RH  021%=      5-min Rain = 0
KTAS 140030Z 16012G18KT 33/07 A2985 RMK A01 T03270073  RH  021%=      5-min Rain = 0
KTAS 140031Z 15015KT 33/06 A2985 RMK A01 T03270064  RH  020%=      5-min Rain = 0
KTAS 140032Z 15015KT 33/07 A2985 RMK A01 T03270065  RH  020%=      5-min Rain = 0
KTAS 140033Z 16012KT 33/07 A2985 RMK A01 T03280066  RH  020%=      5-min Rain = 0
KTAS 140034Z 16011KT 33/07 A2985 RMK A01 T03270066  RH  020%=      5-min Rain = 0
KTAS 140035Z 16012KT 33/07 A2985 RMK A01 T03270067  RH  020%=      5-min Rain = 0
KTAS 140036Z 17012KT 33/07 A2985 RMK A01 T03270068  RH  020%=      5-min Rain = 0
KTAS 140037Z 17010KT 33/07 A2985 RMK A01 T03270068  RH  020%=      5-min Rain = 0
KTAS 140038Z 18014KT 33/06 A2985 RMK A01 T03270061  RH  019%=      5-min Rain = 0
KTAS 140039Z 18013KT 33/06 A2985 RMK A01 T03270058  RH  019%=      5-min Rain = 0
KTAS 140040Z 17013KT 33/06 A2985 RMK A01 T03280058  RH  019%=      5-min Rain = 0
KTAS 140041Z 18013KT 33/06 A2985 RMK A01 T03280058  RH  018%=      5-min Rain = 0
KTAS 140042Z 18014KT 33/06 A2985 RMK A01 T03280058  RH  019%=      5-min Rain = 0
KTAS 140043Z 17015KT 33/06 A2985 RMK A01 T03280059  RH  019%=      5-min Rain = 0
KTAS 140044Z 17010KT 33/06 A2985 RMK A01 T03280062  RH  019%=      5-min Rain = 0
KTAS 140045Z 16009KT 33/07 A2985 RMK A01 T03280066  RH  020%=      5-min Rain = 0
KTAS 140046Z 16013KT 33/07 A2985 RMK A01 T03270072  RH  021%=      5-min Rain = 0
KTAS 140047Z 17011G18KT 33/07 A2985 RMK A01 T03260073  RH  021%=      5-min Rain = 0
KTAS 140048Z 17015KT 33/07 A2985 RMK A01 T03250071  RH  021%=      5-min Rain = 0
KTAS 140049Z 17014G19KT 33/07 A2985 RMK A01 T03250071  RH  021%=      5-min Rain = 0
KTAS 140050Z 18014KT 33/07 A2985 RMK A01 T03250071  RH  021%=      5-min Rain = 0
KTAS 140051Z 18016G21KT 33/08 A2985 RMK A01 T03250076  RH  021%=      5-min Rain = 0
KTAS 140052Z 17017KT 32/08 A2985 RMK A01 T03240084  RH  023%=      5-min Rain = 0
KTAS 140053Z 17018G23KT 32/09 A2985 RMK A01 T03230090  RH  024%=      5-min Rain = 0
KTAS 140054Z 17016KT 32/10 A2985 RMK A01 T03220096  RH  025%=      5-min Rain = 0
KTAS 140055Z 18014KT 32/10 A2985 RMK A01 T03200099  RH  025%=      5-min Rain = 0
KTAS 140056Z 17017KT 32/10 A2985 RMK A01 T03190103  RH  026%=      5-min Rain = 0
KTAS 140057Z 17019KT 32/11 A2985 RMK A01 T03180105  RH  027%=      5-min Rain = 0
KTAS 140058Z 17017KT 32/11 A2985 RMK A01 T03170106  RH  027%=      5-min Rain = 0
KTAS 140059Z 17017KT 32/11 A2985 RMK A01 T03170107  RH  028%=      5-min Rain = 0
KTAS 140100Z 17018KT 32/11 A2985 RMK A01 T03160107  RH  028%=      5-min Rain = 0
KTAS 140101Z 17018KT 32/11 A2985 RMK A01 T03150108  RH  028%=      5-min Rain = 0
KTAS 140102Z 17017KT 32/11 A2985 RMK A01 T03150109  RH  028%=      5-min Rain = 0
KTAS 140103Z 17016KT 31/11 A2985 RMK A01 T03140109  RH  028%=      5-min Rain = 0
KTAS 140104Z 18016KT 31/11 A2985 RMK A01 T03130107  RH  028%=      5-min Rain = 0
KTAS 140105Z 17016G22KT 31/11 A2985 RMK A01 T03130106  RH  028%=      5-min Rain = 0
KTAS 140106Z 18018G25KT 31/11 A2985 RMK A01 T03130105  RH  028%=      5-min Rain = 0
KTAS 140107Z 18019KT 31/11 A2985 RMK A01 T03130105  RH  028%=      5-min Rain = 0
KTAS 140108Z 17017G22KT 31/11 A2985 RMK A01 T03130106  RH  028%=      5-min Rain = 0
KTAS 140109Z 17018KT 31/11 A2985 RMK A01 T03130106  RH  028%=      5-min Rain = 0
KTAS 140110Z 17017G22KT 31/11 A2985 RMK A01 T03120106  RH  028%=      5-min Rain = 0
KTAS 140111Z 17019KT 31/11 A2985 RMK A01 T03120105  RH  028%=      5-min Rain = 0
KTAS 140112Z 17022KT 31/10 A2985 RMK A01 T03120104  RH  028%=      5-min Rain = 0
KTAS 140113Z 18018KT 31/11 A2985 RMK A01 T03120106  RH  028%=      5-min Rain = 0
KTAS 140114Z 17017KT 31/11 A2985 RMK A01 T03110107  RH  028%=      5-min Rain = 0
KTAS 140115Z 17017KT 31/11 A2985 RMK A01 T03110108  RH  029%=      5-min Rain = 0
KTAS 140116Z 17019KT 31/11 A2985 RMK A01 T03100108  RH  029%=      5-min Rain = 0
KTAS 140117Z 17016G21KT 31/11 A2985 RMK A01 T03100108  RH  029%=      5-min Rain = 0
KTAS 140118Z 17016G21KT 31/11 A2986 RMK A01 T03100108  RH  029%=      5-min Rain = 0
KTAS 140119Z 18017KT 31/11 A2986 RMK A01 T03090108  RH  029%=      5-min Rain = 0
KTAS 140120Z 17016KT 31/11 A2986 RMK A01 T03090107  RH  029%=      5-min Rain = 0
KTAS 140121Z 17017KT 31/11 A2986 RMK A01 T03080108  RH  029%=      5-min Rain = 0
KTAS 140122Z 18015KT 31/11 A2985 RMK A01 T03080108  RH  029%=      5-min Rain = 0
KTAS 140123Z 17016KT 31/11 A2985 RMK A01 T03080108  RH  029%=      5-min Rain = 0
KTAS 140124Z 18016KT 31/11 A2985 RMK A01 T03080108  RH  029%=      5-min Rain = 0
KTAS 140125Z 18014KT 31/11 A2985 RMK A01 T03080109  RH  029%=      5-min Rain = 0
KTAS 140126Z 18014KT 31/11 A2985 RMK A01 T03070109  RH  030%=      5-min Rain = 0
KTAS 140127Z 18016KT 31/11 A2985 RMK A01 T03070109  RH  030%=      5-min Rain = 0
KTAS 140128Z 18016KT 31/11 A2985 RMK A01 T03060110  RH  030%=      5-min Rain = 0
KTAS 140129Z 18017KT 31/11 A2985 RMK A01 T03060110  RH  030%=      5-min Rain = 0
KTAS 140130Z 18016KT 31/11 A2985 RMK A01 T03060111  RH  030%=      5-min Rain = 0
KTAS 140131Z 18013KT 31/11 A2985 RMK A01 T03050111  RH  030%=      5-min Rain = 0
KTAS 140132Z 18016KT 30/11 A2985 RMK A01 T03040111  RH  030%=      5-min Rain = 0
KTAS 140133Z 18015KT 30/11 A2985 RMK A01 T03040111  RH  030%=      5-min Rain = 0
KTAS 140134Z 17015KT 30/11 A2985 RMK A01 T03030111  RH  031%=      5-min Rain = 0
KTAS 140135Z 18014KT 30/11 A2985 RMK A01 T03030111  RH  031%=      5-min Rain = 0
KTAS 140136Z 17013KT 30/11 A2985 RMK A01 T03020111  RH  031%=      5-min Rain = 0
KTAS 140137Z 18014KT 30/11 A2985 RMK A01 T03010112  RH  031%=      5-min Rain = 0
KTAS 140138Z 17015KT 30/11 A2985 RMK A01 T03010112  RH  031%=      5-min Rain = 0
KTAS 140139Z 17016KT 30/11 A2985 RMK A01 T03010112  RH  031%=      5-min Rain = 0
KTAS 140140Z 17014KT 30/11 A2985 RMK A01 T03010112  RH  031%=      5-min Rain = 0
KTAS 140141Z 18013KT 30/11 A2985 RMK A01 T03000112  RH  031%=      5-min Rain = 0
KTAS 140142Z 17015KT 30/11 A2985 RMK A01 T02990112  RH  032%=      5-min Rain = 0
KTAS 140143Z 17015KT 30/11 A2985 RMK A01 T02990113  RH  032%=      5-min Rain = 0
KTAS 140144Z 17016KT 30/11 A2985 RMK A01 T02990113  RH  032%=      5-min Rain = 0
KTAS 140145Z 18015KT 30/11 A2985 RMK A01 T02990113  RH  032%=      5-min Rain = 0
KTAS 140146Z 17016KT 30/11 A2985 RMK A01 T02990113  RH  032%=      5-min Rain = 0
KTAS 140147Z 17014G19KT 30/11 A2985 RMK A01 T02980113  RH  032%=      5-min Rain = 0
KTAS 140148Z 17017KT 30/11 A2985 RMK A01 T02980113  RH  032%=      5-min Rain = 0
KTAS 140149Z 17016KT 30/11 A2985 RMK A01 T02980113  RH  032%=      5-min Rain = 0
KTAS 140150Z 17015KT 30/11 A2985 RMK A01 T02980113  RH  032%=      5-min Rain = 0
KTAS 140151Z 17016KT 30/11 A2985 RMK A01 T02970113  RH  032%=      5-min Rain = 0
KTAS 140152Z 17016KT 30/11 A2985 RMK A01 T02970113  RH  032%=      5-min Rain = 0
KTAS 140153Z 18016KT 30/11 A2986 RMK A01 T02970113  RH  032%=      5-min Rain = 0
KTAS 140154Z 18016KT 30/11 A2986 RMK A01 T02960113  RH  032%=      5-min Rain = 0
KTAS 140155Z 17015KT 30/11 A2986 RMK A01 T02960113  RH  032%=      5-min Rain = 0
KTAS 140156Z 17016KT 30/11 A2986 RMK A01 T02960113  RH  032%=      5-min Rain = 0
KTAS 140157Z 17016KT 30/11 A2986 RMK A01 T02960113  RH  032%=      5-min Rain = 0
KTAS 140158Z 17017KT 30/11 A2986 RMK A01 T02950113  RH  032%=      5-min Rain = 0
KTAS 140159Z 17016KT 30/11 A2986 RMK A01 T02960113  RH  032%=      5-min Rain = 0
KTAS 140200Z 17018KT 30/11 A2986 RMK A01 T02960113  RH  032%=      5-min Rain = 0
KTAS 140201Z 17016KT 30/11 A2986 RMK A01 T02960113  RH  032%=      5-min Rain = 0
KTAS 140202Z 17014KT 30/11 A2986 RMK A01 T02950113  RH  032%=      5-min Rain = 0
KTAS 140203Z 17012KT 30/11 A2986 RMK A01 T02950113  RH  032%=      5-min Rain = 0
KTAS 140204Z 17015KT 29/11 A2986 RMK A01 T02930113  RH  033%=      5-min Rain = 0
KTAS 140205Z 17014KT 29/11 A2986 RMK A01 T02930113  RH  033%=      5-min Rain = 0
KTAS 140206Z 17013KT 29/11 A2986 RMK A01 T02930113  RH  033%=      5-min Rain = 0
KTAS 140207Z 17013G18KT 29/11 A2986 RMK A01 T02920113  RH  033%=      5-min Rain = 0
KTAS 140208Z 17014KT 29/11 A2986 RMK A01 T02920113  RH  033%=      5-min Rain = 0
KTAS 140209Z 17015KT 29/11 A2986 RMK A01 T02920113  RH  033%=      5-min Rain = 0
KTAS 140210Z 17016KT 29/11 A2986 RMK A01 T02920113  RH  033%=      5-min Rain = 0
KTAS 140211Z 17014KT 29/11 A2986 RMK A01 T02920113  RH  033%=      5-min Rain = 0
KTAS 140212Z 17012KT 29/11 A2986 RMK A01 T02910113  RH  033%=      5-min Rain = 0
KTAS 140213Z 17012KT 29/11 A2986 RMK A01 T02910113  RH  033%=      5-min Rain = 0
KTAS 140214Z 17014KT 29/11 A2986 RMK A01 T02900113  RH  033%=      5-min Rain = 0
KTAS 140215Z 17013KT 29/11 A2986 RMK A01 T02900113  RH  033%=      5-min Rain = 0
KTAS 140216Z 17014KT 29/11 A2987 RMK A01 T02900113  RH  033%=      5-min Rain = 0
KTAS 140217Z 17012KT 29/11 A2987 RMK A01 T02890113  RH  033%=      5-min Rain = 0
KTAS 140218Z 17012KT 29/11 A2987 RMK A01 T02880113  RH  034%=      5-min Rain = 0
KTAS 140219Z 17012G17KT 29/11 A2987 RMK A01 T02870113  RH  034%=      5-min Rain = 0
KTAS 140220Z 17013KT 29/11 A2987 RMK A01 T02870112  RH  034%=      5-min Rain = 0
KTAS 140221Z 17013KT 29/11 A2987 RMK A01 T02870112  RH  034%=      5-min Rain = 0
KTAS 140222Z 17013KT 29/11 A2987 RMK A01 T02870112  RH  034%=      5-min Rain = 0
KTAS 140223Z 17015KT 29/11 A2987 RMK A01 T02870111  RH  033%=      5-min Rain = 0
KTAS 140224Z 17016KT 29/11 A2987 RMK A01 T02880110  RH  033%=      5-min Rain = 0
KTAS 140225Z 17017KT 29/11 A2987 RMK A01 T02880108  RH  033%=      5-min Rain = 0
KTAS 140226Z 17015G20KT 29/11 A2988 RMK A01 T02890107  RH  032%=      5-min Rain = 0
KTAS 140227Z 18016KT 29/11 A2988 RMK A01 T02880107  RH  032%=      5-min Rain = 0
KTAS 140228Z 18015G21KT 29/11 A2988 RMK A01 T02880106  RH  032%=      5-min Rain = 0
KTAS 140229Z 17014KT 29/11 A2988 RMK A01 T02880106  RH  032%=      5-min Rain = 0
KTAS 140230Z 18012KT 29/11 A2988 RMK A01 T02870106  RH  033%=      5-min Rain = 0
KTAS 140231Z 18014KT 29/11 A2988 RMK A01 T02860107  RH  033%=      5-min Rain = 0
KTAS 140232Z 18013KT 29/11 A2988 RMK A01 T02860107  RH  033%=      5-min Rain = 0
KTAS 140233Z 18013KT 29/11 A2988 RMK A01 T02850108  RH  033%=      5-min Rain = 0
KTAS 140234Z 18016KT 29/11 A2988 RMK A01 T02850110  RH  034%=      5-min Rain = 0
KTAS 140235Z 18016G21KT 29/11 A2988 RMK A01 T02850114  RH  034%=      5-min Rain = 0
KTAS 140236Z 18016KT 29/12 A2988 RMK A01 T02850117  RH  035%=      5-min Rain = 0
KTAS 140237Z 18016G21KT 29/12 A2988 RMK A01 T02850120  RH  036%=      5-min Rain = 0
KTAS 140238Z 18018KT 28/12 A2988 RMK A01 T02840123  RH  037%=      5-min Rain = 0
KTAS 140239Z 18018KT 28/13 A2988 RMK A01 T02840125  RH  037%=      5-min Rain = 0
KTAS 140240Z 18015KT 28/13 A2988 RMK A01 T02840126  RH  038%=      5-min Rain = 0
KTAS 140241Z 18014G23KT 28/13 A2988 RMK A01 T02830127  RH  038%=      5-min Rain = 0
KTAS 140242Z 18019G24KT 28/13 A2988 RMK A01 T02830128  RH  038%=      5-min Rain = 0
KTAS 140243Z 18016KT 28/13 A2988 RMK A01 T02830128  RH  038%=      5-min Rain = 0
KTAS 140244Z 18015KT 28/13 A2988 RMK A01 T02820128  RH  039%=      5-min Rain = 0
KTAS 140245Z 18016KT 28/13 A2988 RMK A01 T02810128  RH  039%=      5-min Rain = 0
KTAS 140246Z 18019G24KT 28/13 A2988 RMK A01 T02810129  RH  039%=      5-min Rain = 0
KTAS 140247Z 18019G26KT 28/13 A2988 RMK A01 T02820129  RH  039%=      5-min Rain = 0
KTAS 140248Z 18021KT 28/13 A2988 RMK A01 T02820130  RH  039%=      5-min Rain = 0
KTAS 140249Z 18017KT 28/13 A2989 RMK A01 T02820130  RH  039%=      5-min Rain = 0
KTAS 140250Z 18021KT 28/13 A2989 RMK A01 T02800130  RH  040%=      5-min Rain = 0
KTAS 140251Z 18018G23KT 28/13 A2989 RMK A01 T02800131  RH  040%=      5-min Rain = 0
KTAS 140252Z 19020G26KT 28/13 A2989 RMK A01 T02800131  RH  040%=      5-min Rain = 0
KTAS 140253Z 18016G21KT 28/13 A2989 RMK A01 T02790131  RH  040%=      5-min Rain = 0
KTAS 140254Z 19021KT 28/13 A2989 RMK A01 T02790131  RH  040%=      5-min Rain = 0
KTAS 140255Z 18019G24KT 28/13 A2989 RMK A01 T02790130  RH  040%=      5-min Rain = 0
KTAS 140256Z 18021KT 28/13 A2989 RMK A01 T02790130  RH  040%=      5-min Rain = 0
KTAS 140257Z 18021G26KT 28/13 A2989 RMK A01 T02790130  RH  040%=      5-min Rain = 0
KTAS 140258Z 18018KT 28/13 A2989 RMK A01 T02790130  RH  040%=      5-min Rain = 0
KTAS 140259Z 18016G21KT 28/13 A299 RMK A01 T02780130  RH  040%=      5-min Rain = 0
KTAS 140300Z 19018KT 28/13 A299 RMK A01 T02770130  RH  040%=      5-min Rain = 0
KTAS 140301Z 18017G23KT 28/13 A299 RMK A01 T02770131  RH  040%=      5-min Rain = 0
KTAS 140302Z 18021G26KT 28/13 A299 RMK A01 T02770133  RH  041%=      5-min Rain = 0
KTAS 140303Z 18025KT 28/14 A299 RMK A01 T02770136  RH  042%=      5-min Rain = 0
KTAS 140304Z 18019G24KT 28/14 A299 RMK A01 T02770138  RH  042%=      5-min Rain = 0
KTAS 140305Z 18017G22KT 28/14 A299 RMK A01 T02760138  RH  043%=      5-min Rain = 0
KTAS 140306Z 18020KT 28/14 A299 RMK A01 T02750138  RH  043%=      5-min Rain = 0
KTAS 140307Z 18019KT 27/14 A299 RMK A01 T02740139  RH  043%=      5-min Rain = 0
KTAS 140308Z 18020KT 27/14 A299 RMK A01 T02740140  RH  044%=      5-min Rain = 0
KTAS 140309Z 18020KT 27/14 A299 RMK A01 T02740141  RH  044%=      5-min Rain = 0
KTAS 140310Z 18019G24KT 27/14 A299 RMK A01 T02730142  RH  045%=      5-min Rain = 0
KTAS 140311Z 18021KT 27/14 A299 RMK A01 T02730143  RH  045%=      5-min Rain = 0
KTAS 140312Z 18018KT 27/14 A299 RMK A01 T02730144  RH  045%=      5-min Rain = 0
KTAS 140313Z 18016KT 27/14 A299 RMK A01 T02720144  RH  045%=      5-min Rain = 0
KTAS 140314Z 18018KT 27/15 A299 RMK A01 T02710145  RH  046%=      5-min Rain = 0
KTAS 140315Z 18017KT 27/15 A2991 RMK A01 T02710146  RH  046%=      5-min Rain = 0
KTAS 140316Z 18018KT 27/15 A2991 RMK A01 T02710146  RH  046%=      5-min Rain = 0
KTAS 140317Z 18017KT 27/15 A2991 RMK A01 T02710147  RH  047%=      5-min Rain = 0
KTAS 140318Z 18017KT 27/15 A2991 RMK A01 T02710147  RH  047%=      5-min Rain = 0
KTAS 140319Z 18018KT 27/15 A2991 RMK A01 T02700147  RH  047%=      5-min Rain = 0
KTAS 140320Z 18015G21KT 27/15 A2991 RMK A01 T02700147  RH  047%=      5-min Rain = 0
KTAS 140321Z 18016G21KT 27/15 A2991 RMK A01 T02700147  RH  047%=      5-min Rain = 0
KTAS 140322Z 18018KT 27/15 A2991 RMK A01 T02700148  RH  047%=      5-min Rain = 0
KTAS 140323Z 18018G23KT 27/15 A2991 RMK A01 T02700148  RH  047%=      5-min Rain = 0
KTAS 140324Z 18019KT 27/15 A2991 RMK A01 T02700148  RH  047%=      5-min Rain = 0
KTAS 140325Z 18016KT 27/15 A2991 RMK A01 T02700148  RH  047%=      5-min Rain = 0
KTAS 140326Z 18015KT 27/15 A2991 RMK A01 T02700148  RH  047%=      5-min Rain = 0
KTAS 140327Z 17017KT 27/15 A2992 RMK A01 T02690149  RH  048%=      5-min Rain = 0
KTAS 140328Z 18015G20KT 27/15 A2992 RMK A01 T02690149  RH  048%=      5-min Rain = 0
KTAS 140329Z 18016G21KT 27/15 A2992 RMK A01 T02680149  RH  048%=      5-min Rain = 0
KTAS 140330Z 18018KT 27/15 A2992 RMK A01 T02680149  RH  048%=      5-min Rain = 0
KTAS 140331Z 18015KT 27/15 A2992 RMK A01 T02680149  RH  048%=      5-min Rain = 0
KTAS 140332Z 18015KT 27/15 A2992 RMK A01 T02680149  RH  048%=      5-min Rain = 0
KTAS 140333Z 18018KT 27/15 A2992 RMK A01 T02670150  RH  049%=      5-min Rain = 0
KTAS 140334Z 18015G20KT 27/15 A2992 RMK A01 T02680150  RH  049%=      5-min Rain = 0
KTAS 140335Z 18016KT 27/15 A2992 RMK A01 T02670150  RH  049%=      5-min Rain = 0
KTAS 140336Z 18013KT 27/15 A2992 RMK A01 T02670150  RH  049%=      5-min Rain = 0
KTAS 140337Z 18014KT 27/15 A2992 RMK A01 T02660150  RH  049%=      5-min Rain = 0
KTAS 140338Z 18017KT 27/15 A2992 RMK A01 T02660151  RH  049%=      5-min Rain = 0
KTAS 140339Z 18017KT 27/15 A2992 RMK A01 T02660151  RH  049%=      5-min Rain = 0
KTAS 140340Z 18013KT 27/15 A2992 RMK A01 T02660151  RH  049%=      5-min Rain = 0
KTAS 140341Z 18016G22KT 27/15 A2992 RMK A01 T02650151  RH  049%=      5-min Rain = 0
KTAS 140342Z 18014KT 27/15 A2992 RMK A01 T02650151  RH  050%=      5-min Rain = 0
KTAS 140343Z 18015KT 27/15 A2992 RMK A01 T02650151  RH  050%=      5-min Rain = 0
KTAS 140344Z 18017G22KT 27/15 A2992 RMK A01 T02650151  RH  049%=      5-min Rain = 0
KTAS 140345Z 18019G26KT 27/15 A2992 RMK A01 T02650150  RH  049%=      5-min Rain = 0
KTAS 140346Z 18016KT 27/15 A2992 RMK A01 T02660150  RH  049%=      5-min Rain = 0
KTAS 140347Z 18018KT 27/15 A2992 RMK A01 T02650150  RH  049%=      5-min Rain = 0
KTAS 140348Z 18014KT 27/15 A2993 RMK A01 T02650150  RH  049%=      5-min Rain = 0
KTAS 140349Z 18014KT 27/15 A2993 RMK A01 T02650150  RH  049%=      5-min Rain = 0
KTAS 140350Z 18016KT 26/15 A2993 RMK A01 T02640150  RH  049%=      5-min Rain = 0
KTAS 140351Z 18014KT 26/15 A2993 RMK A01 T02640150  RH  050%=      5-min Rain = 0
KTAS 140352Z 18015G20KT 26/15 A2993 RMK A01 T02630150  RH  050%=      5-min Rain = 0
KTAS 140353Z 18016KT 26/15 A2993 RMK A01 T02640150  RH  050%=      5-min Rain = 0
KTAS 140354Z 18016KT 26/15 A2993 RMK A01 T02630150  RH  050%=      5-min Rain = 0
KTAS 140355Z 17016G21KT 26/15 A2993 RMK A01 T02640150  RH  050%=      5-min Rain = 0
KTAS 140356Z 18014KT 26/15 A2993 RMK A01 T02640150  RH  050%=      5-min Rain = 0
KTAS 140357Z 18014G19KT 26/15 A2993 RMK A01 T02630150  RH  050%=      5-min Rain = 0
KTAS 140358Z 18016KT 26/15 A2993 RMK A01 T02620150  RH  050%=      5-min Rain = 0
KTAS 140359Z 18015G20KT 26/15 A2993 RMK A01 T02630150  RH  050%=      5-min Rain = 0
KTAS 140400Z 18016KT 26/15 A2993 RMK A01 T02630150  RH  050%=      5-min Rain = 0
KTAS 140401Z 18016KT 26/15 A2993 RMK A01 T02630149  RH  050%=      5-min Rain = 0
KTAS 140402Z 18015G20KT 26/15 A2993 RMK A01 T02630149  RH  050%=      5-min Rain = 0
KTAS 140403Z 18016KT 26/15 A2993 RMK A01 T02630149  RH  049%=      5-min Rain = 0
KTAS 140404Z 18015G20KT 26/15 A2993 RMK A01 T02630149  RH  050%=      5-min Rain = 0
KTAS 140405Z 18014KT 26/15 A2993 RMK A01 T02620149  RH  050%=      5-min Rain = 0
KTAS 140406Z 18014KT 26/15 A2993 RMK A01 T02610148  RH  050%=      5-min Rain = 0
KTAS 140407Z 18015KT 26/15 A2993 RMK A01 T02610148  RH  050%=      5-min Rain = 0
KTAS 140408Z 18016KT 26/15 A2993 RMK A01 T02620148  RH  050%=      5-min Rain = 0
KTAS 140409Z 18016KT 26/15 A2993 RMK A01 T02610148  RH  050%=      5-min Rain = 0
KTAS 140410Z 18015KT 26/15 A2993 RMK A01 T02610148  RH  050%=      5-min Rain = 0
KTAS 140411Z 18016KT 26/15 A2993 RMK A01 T02610148  RH  050%=      5-min Rain = 0
KTAS 140412Z 18012KT 26/15 A2993 RMK A01 T02610148  RH  050%=      5-min Rain = 0
KTAS 140413Z 18014KT 26/15 A2993 RMK A01 T02600147  RH  050%=      5-min Rain = 0
KTAS 140414Z 19014KT 26/15 A2993 RMK A01 T02610147  RH  050%=      5-min Rain = 0
KTAS 140415Z 18016KT 26/15 A2993 RMK A01 T02610147  RH  050%=      5-min Rain = 0
KTAS 140416Z 18015KT 26/15 A2993 RMK A01 T02610147  RH  049%=      5-min Rain = 0
KTAS 140417Z 18012KT 26/15 A2993 RMK A01 T02610147  RH  049%=      5-min Rain = 0
KTAS 140418Z 18013G18KT 26/15 A2994 RMK A01 T02600147  RH  050%=      5-min Rain = 0
KTAS 140419Z 18015KT 26/15 A2993 RMK A01 T02600147  RH  050%=      5-min Rain = 0
KTAS 140420Z 18014KT 26/15 A2994 RMK A01 T02600147  RH  050%=      5-min Rain = 0
KTAS 140421Z 18015KT 26/15 A2994 RMK A01 T02600146  RH  050%=      5-min Rain = 0
KTAS 140422Z 18012KT 26/15 A2994 RMK A01 T02600146  RH  050%=      5-min Rain = 0
KTAS 140423Z 18014KT 26/15 A2994 RMK A01 T02590146  RH  050%=      5-min Rain = 0
KTAS 140424Z 18013KT 26/15 A2994 RMK A01 T02590146  RH  050%=      5-min Rain = 0
KTAS 140425Z 18012KT 26/15 A2994 RMK A01 T02590146  RH  050%=      5-min Rain = 0
KTAS 140426Z 18014KT 26/15 A2994 RMK A01 T02580146  RH  050%=      5-min Rain = 0
KTAS 140427Z 18012KT 26/15 A2994 RMK A01 T02580146  RH  050%=      5-min Rain = 0
KTAS 140428Z 18011KT 26/15 A2994 RMK A01 T02580146  RH  050%=      5-min Rain = 0
KTAS 140429Z 18012KT 26/15 A2994 RMK A01 T02580146  RH  050%=      5-min Rain = 0
KTAS 140430Z 18013KT 26/15 A2994 RMK A01 T02570146  RH  050%=      5-min Rain = 0
KTAS 140431Z 18013KT 26/15 A2994 RMK A01 T02570146  RH  050%=      5-min Rain = 0
KTAS 140432Z 18013KT 26/15 A2994 RMK A01 T02570146  RH  050%=      5-min Rain = 0
KTAS 140433Z 18012KT 26/15 A2994 RMK A01 T02570146  RH  050%=      5-min Rain = 0
KTAS 140434Z 18011KT 26/15 A2994 RMK A01 T02570146  RH  050%=      5-min Rain = 0
KTAS 140435Z 18013KT 26/15 A2994 RMK A01 T02570146  RH  051%=      5-min Rain = 0
KTAS 140436Z 18013KT 26/15 A2994 RMK A01 T02570147  RH  051%=      5-min Rain = 0
KTAS 140437Z 18012KT 26/15 A2994 RMK A01 T02570147  RH  051%=      5-min Rain = 0
KTAS 140438Z 18013KT 26/15 A2994 RMK A01 T02560147  RH  051%=      5-min Rain = 0
KTAS 140439Z 18011KT 26/15 A2994 RMK A01 T02560147  RH  051%=      5-min Rain = 0
KTAS 140440Z 18013KT 26/15 A2994 RMK A01 T02560147  RH  051%=      5-min Rain = 0
KTAS 140441Z 18013KT 26/15 A2994 RMK A01 T02560147  RH  051%=      5-min Rain = 0
KTAS 140442Z 18012KT 26/15 A2994 RMK A01 T02560147  RH  051%=      5-min Rain = 0
KTAS 140443Z 18013KT 26/15 A2994 RMK A01 T02560146  RH  051%=      5-min Rain = 0
KTAS 140444Z 18012KT 26/15 A2994 RMK A01 T02560146  RH  051%=      5-min Rain = 0
KTAS 140445Z 18011KT 26/15 A2994 RMK A01 T02550146  RH  051%=      5-min Rain = 0
KTAS 140446Z 18011KT 26/15 A2995 RMK A01 T02550146  RH  051%=      5-min Rain = 0
KTAS 140447Z 18011KT 25/15 A2995 RMK A01 T02540146  RH  051%=      5-min Rain = 0
KTAS 140448Z 18011KT 25/15 A2995 RMK A01 T02540146  RH  051%=      5-min Rain = 0
KTAS 140449Z 18011KT 25/15 A2995 RMK A01 T02540146  RH  051%=      5-min Rain = 0
KTAS 140450Z 18011KT 25/15 A2995 RMK A01 T02540146  RH  051%=      5-min Rain = 0
KTAS 140451Z 18011KT 25/15 A2995 RMK A01 T02530146  RH  051%=      5-min Rain = 0
KTAS 140452Z 18010KT 25/15 A2995 RMK A01 T02530145  RH  051%=      5-min Rain = 0
KTAS 140453Z 18013KT 25/15 A2995 RMK A01 T02520145  RH  051%=      5-min Rain = 0
KTAS 140454Z 17012KT 25/15 A2995 RMK A01 T02530145  RH  051%=      5-min Rain = 0
KTAS 140455Z 18013KT 25/15 A2995 RMK A01 T02530145  RH  051%=      5-min Rain = 0
KTAS 140456Z 18013KT 25/15 A2994 RMK A01 T02540145  RH  051%=      5-min Rain = 0
KTAS 140457Z 18011KT 25/15 A2994 RMK A01 T02540145  RH  051%=      5-min Rain = 0
KTAS 140458Z 18010KT 25/15 A2994 RMK A01 T02530145  RH  051%=      5-min Rain = 0
KTAS 140459Z 18011KT 25/14 A2994 RMK A01 T02530144  RH  051%=      5-min Rain = 0

Page generated in 0.0846 seconds.